<?xml version="1.0" encoding="UTF-8" standalone="no" ?>
<gpx xmlns="http://www.topografix.com/GPX/1/1" xmlns:xsi="http://www.w3.org/2001/XMLSchema-instance" xsi:schemaLocation="http://www.topografix.com/GPX/1/1 http://www.topografix.com/GPX/1/1/gpx.xsd" version="1.1" creator="VisuGPX - https://www.visugpx.com">
  <metadata>
    <name>Les balades du confinement</name>
  </metadata>
  <trk>
    <name><![CDATA[29 mars]]></name>
    <trkseg>
      <trkpt lat="43.55038" lon="1.47669">
        <ele>210.634</ele>
        <time>2020-03-29T13:08:24Z</time>
      </trkpt>
      <trkpt lat="43.55038" lon="1.47671">
        <ele>208.613</ele>
        <time>2020-03-29T13:08:29Z</time>
      </trkpt>
      <trkpt lat="43.55038" lon="1.4767">
        <ele>207.893</ele>
        <time>2020-03-29T13:08:35Z</time>
      </trkpt>
      <trkpt lat="43.55033" lon="1.47667">
        <ele>207.925</ele>
        <time>2020-03-29T13:08:41Z</time>
      </trkpt>
      <trkpt lat="43.55033" lon="1.47667">
        <ele>207.07</ele>
        <time>2020-03-29T13:08:47Z</time>
      </trkpt>
      <trkpt lat="43.55033" lon="1.47667">
        <ele>207.073</ele>
        <time>2020-03-29T13:08:52Z</time>
      </trkpt>
      <trkpt lat="43.55033" lon="1.47667">
        <ele>207.092</ele>
        <time>2020-03-29T13:08:58Z</time>
      </trkpt>
      <trkpt lat="43.55031" lon="1.47662">
        <ele>207.197</ele>
        <time>2020-03-29T13:09:04Z</time>
      </trkpt>
      <trkpt lat="43.55029" lon="1.47664">
        <ele>207.437</ele>
        <time>2020-03-29T13:09:09Z</time>
      </trkpt>
      <trkpt lat="43.55024" lon="1.47665">
        <ele>207.946</ele>
        <time>2020-03-29T13:09:15Z</time>
      </trkpt>
      <trkpt lat="43.55018" lon="1.47664">
        <ele>208.851</ele>
        <time>2020-03-29T13:09:21Z</time>
      </trkpt>
      <trkpt lat="43.55012" lon="1.47666">
        <ele>209.593</ele>
        <time>2020-03-29T13:09:26Z</time>
      </trkpt>
      <trkpt lat="43.55007" lon="1.47667">
        <ele>210.393</ele>
        <time>2020-03-29T13:09:32Z</time>
      </trkpt>
      <trkpt lat="43.55002" lon="1.47671">
        <ele>211.021</ele>
        <time>2020-03-29T13:09:37Z</time>
      </trkpt>
      <trkpt lat="43.54995" lon="1.47674">
        <ele>211.677</ele>
        <time>2020-03-29T13:09:43Z</time>
      </trkpt>
      <trkpt lat="43.5499" lon="1.47677">
        <ele>212.189</ele>
        <time>2020-03-29T13:09:48Z</time>
      </trkpt>
      <trkpt lat="43.54985" lon="1.4768">
        <ele>212.672</ele>
        <time>2020-03-29T13:09:54Z</time>
      </trkpt>
      <trkpt lat="43.54979" lon="1.47681">
        <ele>213.012</ele>
        <time>2020-03-29T13:10:00Z</time>
      </trkpt>
      <trkpt lat="43.54974" lon="1.47684">
        <ele>213.121</ele>
        <time>2020-03-29T13:10:05Z</time>
      </trkpt>
      <trkpt lat="43.54968" lon="1.47688">
        <ele>213.088</ele>
        <time>2020-03-29T13:10:11Z</time>
      </trkpt>
      <trkpt lat="43.54961" lon="1.47693">
        <ele>212.958</ele>
        <time>2020-03-29T13:10:17Z</time>
      </trkpt>
      <trkpt lat="43.54954" lon="1.47697">
        <ele>212.775</ele>
        <time>2020-03-29T13:10:23Z</time>
      </trkpt>
      <trkpt lat="43.54948" lon="1.47699">
        <ele>212.565</ele>
        <time>2020-03-29T13:10:29Z</time>
      </trkpt>
      <trkpt lat="43.54942" lon="1.47701">
        <ele>212.354</ele>
        <time>2020-03-29T13:10:35Z</time>
      </trkpt>
      <trkpt lat="43.54937" lon="1.47704">
        <ele>212.128</ele>
        <time>2020-03-29T13:10:41Z</time>
      </trkpt>
      <trkpt lat="43.54933" lon="1.47708">
        <ele>211.95</ele>
        <time>2020-03-29T13:10:47Z</time>
      </trkpt>
      <trkpt lat="43.54931" lon="1.47708">
        <ele>211.944</ele>
        <time>2020-03-29T13:10:52Z</time>
      </trkpt>
      <trkpt lat="43.54926" lon="1.47699">
        <ele>212.003</ele>
        <time>2020-03-29T13:10:58Z</time>
      </trkpt>
      <trkpt lat="43.54925" lon="1.47692">
        <ele>212.056</ele>
        <time>2020-03-29T13:11:03Z</time>
      </trkpt>
      <trkpt lat="43.54922" lon="1.47684">
        <ele>212.105</ele>
        <time>2020-03-29T13:11:08Z</time>
      </trkpt>
      <trkpt lat="43.54923" lon="1.47679">
        <ele>212.181</ele>
        <time>2020-03-29T13:11:14Z</time>
      </trkpt>
      <trkpt lat="43.54921" lon="1.47672">
        <ele>212.248</ele>
        <time>2020-03-29T13:11:20Z</time>
      </trkpt>
      <trkpt lat="43.54917" lon="1.47662">
        <ele>212.291</ele>
        <time>2020-03-29T13:11:26Z</time>
      </trkpt>
      <trkpt lat="43.54914" lon="1.47654">
        <ele>212.331</ele>
        <time>2020-03-29T13:11:31Z</time>
      </trkpt>
      <trkpt lat="43.54909" lon="1.47646">
        <ele>212.4</ele>
        <time>2020-03-29T13:11:37Z</time>
      </trkpt>
      <trkpt lat="43.54906" lon="1.47639">
        <ele>212.458</ele>
        <time>2020-03-29T13:11:42Z</time>
      </trkpt>
      <trkpt lat="43.54901" lon="1.47629">
        <ele>212.545</ele>
        <time>2020-03-29T13:11:48Z</time>
      </trkpt>
      <trkpt lat="43.54898" lon="1.47621">
        <ele>212.619</ele>
        <time>2020-03-29T13:11:54Z</time>
      </trkpt>
      <trkpt lat="43.54896" lon="1.47614">
        <ele>212.677</ele>
        <time>2020-03-29T13:12:00Z</time>
      </trkpt>
      <trkpt lat="43.54894" lon="1.47606">
        <ele>212.726</ele>
        <time>2020-03-29T13:12:05Z</time>
      </trkpt>
      <trkpt lat="43.54891" lon="1.47598">
        <ele>212.773</ele>
        <time>2020-03-29T13:12:10Z</time>
      </trkpt>
      <trkpt lat="43.54886" lon="1.4759">
        <ele>212.823</ele>
        <time>2020-03-29T13:12:16Z</time>
      </trkpt>
      <trkpt lat="43.54882" lon="1.47584">
        <ele>212.858</ele>
        <time>2020-03-29T13:12:22Z</time>
      </trkpt>
      <trkpt lat="43.54879" lon="1.47577">
        <ele>212.889</ele>
        <time>2020-03-29T13:12:27Z</time>
      </trkpt>
      <trkpt lat="43.54875" lon="1.4757">
        <ele>212.963</ele>
        <time>2020-03-29T13:12:33Z</time>
      </trkpt>
      <trkpt lat="43.54872" lon="1.47564">
        <ele>213.037</ele>
        <time>2020-03-29T13:12:38Z</time>
      </trkpt>
      <trkpt lat="43.54869" lon="1.47559">
        <ele>213.146</ele>
        <time>2020-03-29T13:12:44Z</time>
      </trkpt>
      <trkpt lat="43.54863" lon="1.47552">
        <ele>213.276</ele>
        <time>2020-03-29T13:12:50Z</time>
      </trkpt>
      <trkpt lat="43.54858" lon="1.47544">
        <ele>213.423</ele>
        <time>2020-03-29T13:12:56Z</time>
      </trkpt>
      <trkpt lat="43.54855" lon="1.47537">
        <ele>213.586</ele>
        <time>2020-03-29T13:13:02Z</time>
      </trkpt>
      <trkpt lat="43.54852" lon="1.47531">
        <ele>213.743</ele>
        <time>2020-03-29T13:13:08Z</time>
      </trkpt>
      <trkpt lat="43.54847" lon="1.47525">
        <ele>213.884</ele>
        <time>2020-03-29T13:13:14Z</time>
      </trkpt>
      <trkpt lat="43.54843" lon="1.4752">
        <ele>213.999</ele>
        <time>2020-03-29T13:13:19Z</time>
      </trkpt>
      <trkpt lat="43.54836" lon="1.47509">
        <ele>214.131</ele>
        <time>2020-03-29T13:13:25Z</time>
      </trkpt>
      <trkpt lat="43.54834" lon="1.47506">
        <ele>214.234</ele>
        <time>2020-03-29T13:13:30Z</time>
      </trkpt>
      <trkpt lat="43.5483" lon="1.475">
        <ele>214.358</ele>
        <time>2020-03-29T13:13:36Z</time>
      </trkpt>
      <trkpt lat="43.54826" lon="1.47495">
        <ele>214.474</ele>
        <time>2020-03-29T13:13:41Z</time>
      </trkpt>
      <trkpt lat="43.54822" lon="1.47492">
        <ele>214.639</ele>
        <time>2020-03-29T13:13:47Z</time>
      </trkpt>
      <trkpt lat="43.54815" lon="1.47484">
        <ele>214.81</ele>
        <time>2020-03-29T13:13:53Z</time>
      </trkpt>
      <trkpt lat="43.54808" lon="1.47478">
        <ele>214.949</ele>
        <time>2020-03-29T13:13:58Z</time>
      </trkpt>
      <trkpt lat="43.54804" lon="1.47472">
        <ele>215.108</ele>
        <time>2020-03-29T13:14:04Z</time>
      </trkpt>
      <trkpt lat="43.548" lon="1.47465">
        <ele>215.24</ele>
        <time>2020-03-29T13:14:09Z</time>
      </trkpt>
      <trkpt lat="43.54798" lon="1.4746">
        <ele>215.374</ele>
        <time>2020-03-29T13:14:14Z</time>
      </trkpt>
      <trkpt lat="43.54792" lon="1.47452">
        <ele>215.527</ele>
        <time>2020-03-29T13:14:20Z</time>
      </trkpt>
      <trkpt lat="43.54785" lon="1.47445">
        <ele>215.663</ele>
        <time>2020-03-29T13:14:26Z</time>
      </trkpt>
      <trkpt lat="43.5478" lon="1.47441">
        <ele>215.78</ele>
        <time>2020-03-29T13:14:32Z</time>
      </trkpt>
      <trkpt lat="43.54778" lon="1.47439">
        <ele>215.854</ele>
        <time>2020-03-29T13:14:37Z</time>
      </trkpt>
      <trkpt lat="43.54771" lon="1.4743">
        <ele>215.946</ele>
        <time>2020-03-29T13:14:43Z</time>
      </trkpt>
      <trkpt lat="43.54765" lon="1.47424">
        <ele>216.03</ele>
        <time>2020-03-29T13:14:49Z</time>
      </trkpt>
      <trkpt lat="43.54761" lon="1.47421">
        <ele>216.116</ele>
        <time>2020-03-29T13:14:55Z</time>
      </trkpt>
      <trkpt lat="43.54755" lon="1.47414">
        <ele>216.191</ele>
        <time>2020-03-29T13:15:00Z</time>
      </trkpt>
      <trkpt lat="43.54748" lon="1.4741">
        <ele>216.278</ele>
        <time>2020-03-29T13:15:06Z</time>
      </trkpt>
      <trkpt lat="43.54743" lon="1.47406">
        <ele>216.37</ele>
        <time>2020-03-29T13:15:12Z</time>
      </trkpt>
      <trkpt lat="43.54738" lon="1.47403">
        <ele>216.444</ele>
        <time>2020-03-29T13:15:17Z</time>
      </trkpt>
      <trkpt lat="43.54732" lon="1.47399">
        <ele>216.537</ele>
        <time>2020-03-29T13:15:23Z</time>
      </trkpt>
      <trkpt lat="43.54727" lon="1.47396">
        <ele>216.65</ele>
        <time>2020-03-29T13:15:29Z</time>
      </trkpt>
      <trkpt lat="43.54721" lon="1.47392">
        <ele>216.781</ele>
        <time>2020-03-29T13:15:35Z</time>
      </trkpt>
      <trkpt lat="43.54715" lon="1.47378">
        <ele>216.931</ele>
        <time>2020-03-29T13:15:41Z</time>
      </trkpt>
      <trkpt lat="43.54713" lon="1.47372">
        <ele>217.05</ele>
        <time>2020-03-29T13:15:46Z</time>
      </trkpt>
      <trkpt lat="43.54707" lon="1.47368">
        <ele>217.157</ele>
        <time>2020-03-29T13:15:52Z</time>
      </trkpt>
      <trkpt lat="43.54702" lon="1.4737">
        <ele>217.232</ele>
        <time>2020-03-29T13:15:57Z</time>
      </trkpt>
      <trkpt lat="43.54695" lon="1.47363">
        <ele>217.325</ele>
        <time>2020-03-29T13:16:03Z</time>
      </trkpt>
      <trkpt lat="43.54693" lon="1.47367">
        <ele>217.404</ele>
        <time>2020-03-29T13:16:08Z</time>
      </trkpt>
      <trkpt lat="43.54686" lon="1.47358">
        <ele>217.493</ele>
        <time>2020-03-29T13:16:14Z</time>
      </trkpt>
      <trkpt lat="43.5468" lon="1.47352">
        <ele>217.576</ele>
        <time>2020-03-29T13:16:19Z</time>
      </trkpt>
      <trkpt lat="43.54675" lon="1.47348">
        <ele>217.711</ele>
        <time>2020-03-29T13:16:25Z</time>
      </trkpt>
      <trkpt lat="43.54673" lon="1.47345">
        <ele>217.857</ele>
        <time>2020-03-29T13:16:31Z</time>
      </trkpt>
      <trkpt lat="43.54673" lon="1.47337">
        <ele>218.024</ele>
        <time>2020-03-29T13:16:36Z</time>
      </trkpt>
      <trkpt lat="43.54671" lon="1.47331">
        <ele>218.23</ele>
        <time>2020-03-29T13:16:42Z</time>
      </trkpt>
      <trkpt lat="43.54666" lon="1.47326">
        <ele>218.4</ele>
        <time>2020-03-29T13:16:47Z</time>
      </trkpt>
      <trkpt lat="43.54664" lon="1.47322">
        <ele>218.597</ele>
        <time>2020-03-29T13:16:53Z</time>
      </trkpt>
      <trkpt lat="43.5466" lon="1.47317">
        <ele>218.771</ele>
        <time>2020-03-29T13:16:59Z</time>
      </trkpt>
      <trkpt lat="43.54656" lon="1.47318">
        <ele>218.915</ele>
        <time>2020-03-29T13:17:04Z</time>
      </trkpt>
      <trkpt lat="43.54648" lon="1.47313">
        <ele>219.078</ele>
        <time>2020-03-29T13:17:10Z</time>
      </trkpt>
      <trkpt lat="43.54648" lon="1.4731">
        <ele>219.226</ele>
        <time>2020-03-29T13:17:16Z</time>
      </trkpt>
      <trkpt lat="43.54651" lon="1.47304">
        <ele>219.324</ele>
        <time>2020-03-29T13:17:21Z</time>
      </trkpt>
      <trkpt lat="43.54645" lon="1.47295">
        <ele>219.431</ele>
        <time>2020-03-29T13:17:27Z</time>
      </trkpt>
      <trkpt lat="43.5464" lon="1.47287">
        <ele>219.522</ele>
        <time>2020-03-29T13:17:33Z</time>
      </trkpt>
      <trkpt lat="43.54636" lon="1.4728">
        <ele>219.61</ele>
        <time>2020-03-29T13:17:39Z</time>
      </trkpt>
      <trkpt lat="43.54632" lon="1.47275">
        <ele>219.703</ele>
        <time>2020-03-29T13:17:45Z</time>
      </trkpt>
      <trkpt lat="43.54629" lon="1.47272">
        <ele>219.773</ele>
        <time>2020-03-29T13:17:50Z</time>
      </trkpt>
      <trkpt lat="43.54628" lon="1.47268">
        <ele>219.85</ele>
        <time>2020-03-29T13:17:56Z</time>
      </trkpt>
      <trkpt lat="43.54626" lon="1.47266">
        <ele>219.898</ele>
        <time>2020-03-29T13:18:01Z</time>
      </trkpt>
      <trkpt lat="43.54628" lon="1.47261">
        <ele>219.976</ele>
        <time>2020-03-29T13:18:07Z</time>
      </trkpt>
      <trkpt lat="43.54627" lon="1.47253">
        <ele>220.039</ele>
        <time>2020-03-29T13:18:12Z</time>
      </trkpt>
      <trkpt lat="43.5463" lon="1.47245">
        <ele>220.117</ele>
        <time>2020-03-29T13:18:18Z</time>
      </trkpt>
      <trkpt lat="43.54629" lon="1.4724">
        <ele>220.204</ele>
        <time>2020-03-29T13:18:23Z</time>
      </trkpt>
      <trkpt lat="43.54629" lon="1.47237">
        <ele>220.298</ele>
        <time>2020-03-29T13:18:28Z</time>
      </trkpt>
      <trkpt lat="43.54628" lon="1.47226">
        <ele>220.392</ele>
        <time>2020-03-29T13:18:33Z</time>
      </trkpt>
      <trkpt lat="43.54625" lon="1.4722">
        <ele>220.489</ele>
        <time>2020-03-29T13:18:38Z</time>
      </trkpt>
      <trkpt lat="43.54623" lon="1.47218">
        <ele>220.586</ele>
        <time>2020-03-29T13:18:44Z</time>
      </trkpt>
      <trkpt lat="43.54621" lon="1.47216">
        <ele>220.686</ele>
        <time>2020-03-29T13:18:50Z</time>
      </trkpt>
      <trkpt lat="43.5462" lon="1.47212">
        <ele>220.787</ele>
        <time>2020-03-29T13:18:56Z</time>
      </trkpt>
      <trkpt lat="43.5462" lon="1.47211">
        <ele>220.864</ele>
        <time>2020-03-29T13:19:01Z</time>
      </trkpt>
      <trkpt lat="43.54619" lon="1.47209">
        <ele>220.89</ele>
        <time>2020-03-29T13:19:07Z</time>
      </trkpt>
      <trkpt lat="43.54619" lon="1.47205">
        <ele>220.964</ele>
        <time>2020-03-29T13:19:12Z</time>
      </trkpt>
      <trkpt lat="43.54616" lon="1.47195">
        <ele>221.052</ele>
        <time>2020-03-29T13:19:17Z</time>
      </trkpt>
      <trkpt lat="43.54614" lon="1.47187">
        <ele>221.142</ele>
        <time>2020-03-29T13:19:23Z</time>
      </trkpt>
      <trkpt lat="43.54613" lon="1.47184">
        <ele>221.215</ele>
        <time>2020-03-29T13:19:29Z</time>
      </trkpt>
      <trkpt lat="43.54613" lon="1.47181">
        <ele>221.298</ele>
        <time>2020-03-29T13:19:34Z</time>
      </trkpt>
      <trkpt lat="43.5461" lon="1.47179">
        <ele>221.391</ele>
        <time>2020-03-29T13:19:40Z</time>
      </trkpt>
      <trkpt lat="43.5461" lon="1.47177">
        <ele>221.454</ele>
        <time>2020-03-29T13:19:45Z</time>
      </trkpt>
      <trkpt lat="43.54601" lon="1.47169">
        <ele>221.522</ele>
        <time>2020-03-29T13:19:51Z</time>
      </trkpt>
      <trkpt lat="43.54598" lon="1.47164">
        <ele>221.6</ele>
        <time>2020-03-29T13:19:57Z</time>
      </trkpt>
      <trkpt lat="43.54593" lon="1.47157">
        <ele>221.663</ele>
        <time>2020-03-29T13:20:02Z</time>
      </trkpt>
      <trkpt lat="43.54587" lon="1.47155">
        <ele>221.735</ele>
        <time>2020-03-29T13:20:08Z</time>
      </trkpt>
      <trkpt lat="43.54585" lon="1.47153">
        <ele>221.807</ele>
        <time>2020-03-29T13:20:14Z</time>
      </trkpt>
      <trkpt lat="43.54584" lon="1.47149">
        <ele>221.888</ele>
        <time>2020-03-29T13:20:20Z</time>
      </trkpt>
      <trkpt lat="43.54581" lon="1.47147">
        <ele>221.976</ele>
        <time>2020-03-29T13:20:26Z</time>
      </trkpt>
      <trkpt lat="43.54578" lon="1.47144">
        <ele>222.054</ele>
        <time>2020-03-29T13:20:31Z</time>
      </trkpt>
      <trkpt lat="43.54576" lon="1.47137">
        <ele>222.161</ele>
        <time>2020-03-29T13:20:37Z</time>
      </trkpt>
      <trkpt lat="43.54576" lon="1.47127">
        <ele>222.293</ele>
        <time>2020-03-29T13:20:43Z</time>
      </trkpt>
      <trkpt lat="43.54574" lon="1.47122">
        <ele>222.406</ele>
        <time>2020-03-29T13:20:49Z</time>
      </trkpt>
      <trkpt lat="43.54573" lon="1.4712">
        <ele>222.5</ele>
        <time>2020-03-29T13:20:54Z</time>
      </trkpt>
      <trkpt lat="43.54571" lon="1.47118">
        <ele>222.621</ele>
        <time>2020-03-29T13:21:00Z</time>
      </trkpt>
      <trkpt lat="43.5457" lon="1.47114">
        <ele>222.724</ele>
        <time>2020-03-29T13:21:06Z</time>
      </trkpt>
      <trkpt lat="43.54567" lon="1.47113">
        <ele>222.852</ele>
        <time>2020-03-29T13:21:12Z</time>
      </trkpt>
      <trkpt lat="43.54565" lon="1.47108">
        <ele>223.002</ele>
        <time>2020-03-29T13:21:18Z</time>
      </trkpt>
      <trkpt lat="43.54564" lon="1.47105">
        <ele>223.125</ele>
        <time>2020-03-29T13:21:23Z</time>
      </trkpt>
      <trkpt lat="43.54557" lon="1.47099">
        <ele>223.278</ele>
        <time>2020-03-29T13:21:29Z</time>
      </trkpt>
      <trkpt lat="43.54556" lon="1.47091">
        <ele>223.413</ele>
        <time>2020-03-29T13:21:34Z</time>
      </trkpt>
      <trkpt lat="43.54555" lon="1.47088">
        <ele>223.525</ele>
        <time>2020-03-29T13:21:39Z</time>
      </trkpt>
      <trkpt lat="43.54554" lon="1.47081">
        <ele>223.702</ele>
        <time>2020-03-29T13:21:45Z</time>
      </trkpt>
      <trkpt lat="43.5455" lon="1.47078">
        <ele>223.782</ele>
        <time>2020-03-29T13:21:51Z</time>
      </trkpt>
      <trkpt lat="43.54548" lon="1.47077">
        <ele>223.912</ele>
        <time>2020-03-29T13:21:56Z</time>
      </trkpt>
      <trkpt lat="43.54544" lon="1.47074">
        <ele>224.155</ele>
        <time>2020-03-29T13:22:02Z</time>
      </trkpt>
      <trkpt lat="43.54542" lon="1.47073">
        <ele>224.388</ele>
        <time>2020-03-29T13:22:08Z</time>
      </trkpt>
      <trkpt lat="43.54539" lon="1.47068">
        <ele>224.619</ele>
        <time>2020-03-29T13:22:14Z</time>
      </trkpt>
      <trkpt lat="43.5454" lon="1.47063">
        <ele>224.81</ele>
        <time>2020-03-29T13:22:19Z</time>
      </trkpt>
      <trkpt lat="43.54541" lon="1.47057">
        <ele>224.935</ele>
        <time>2020-03-29T13:22:24Z</time>
      </trkpt>
      <trkpt lat="43.5454" lon="1.47053">
        <ele>225.083</ele>
        <time>2020-03-29T13:22:30Z</time>
      </trkpt>
      <trkpt lat="43.5454" lon="1.47047">
        <ele>225.318</ele>
        <time>2020-03-29T13:22:35Z</time>
      </trkpt>
      <trkpt lat="43.54539" lon="1.47041">
        <ele>225.515</ele>
        <time>2020-03-29T13:22:40Z</time>
      </trkpt>
      <trkpt lat="43.54538" lon="1.47038">
        <ele>225.681</ele>
        <time>2020-03-29T13:22:46Z</time>
      </trkpt>
      <trkpt lat="43.54537" lon="1.47037">
        <ele>225.709</ele>
        <time>2020-03-29T13:22:51Z</time>
      </trkpt>
      <trkpt lat="43.54536" lon="1.47036">
        <ele>226.024</ele>
        <time>2020-03-29T13:22:57Z</time>
      </trkpt>
      <trkpt lat="43.54534" lon="1.47034">
        <ele>226.23</ele>
        <time>2020-03-29T13:23:02Z</time>
      </trkpt>
      <trkpt lat="43.54532" lon="1.47029">
        <ele>226.566</ele>
        <time>2020-03-29T13:23:07Z</time>
      </trkpt>
      <trkpt lat="43.54527" lon="1.47026">
        <ele>226.905</ele>
        <time>2020-03-29T13:23:13Z</time>
      </trkpt>
      <trkpt lat="43.54523" lon="1.47018">
        <ele>227.309</ele>
        <time>2020-03-29T13:23:19Z</time>
      </trkpt>
      <trkpt lat="43.54519" lon="1.47014">
        <ele>227.617</ele>
        <time>2020-03-29T13:23:24Z</time>
      </trkpt>
      <trkpt lat="43.54514" lon="1.47005">
        <ele>228.121</ele>
        <time>2020-03-29T13:23:30Z</time>
      </trkpt>
      <trkpt lat="43.54508" lon="1.46992">
        <ele>228.662</ele>
        <time>2020-03-29T13:23:36Z</time>
      </trkpt>
      <trkpt lat="43.54505" lon="1.46988">
        <ele>229.146</ele>
        <time>2020-03-29T13:23:41Z</time>
      </trkpt>
      <trkpt lat="43.54502" lon="1.4698">
        <ele>229.76</ele>
        <time>2020-03-29T13:23:47Z</time>
      </trkpt>
      <trkpt lat="43.54498" lon="1.4697">
        <ele>230.4</ele>
        <time>2020-03-29T13:23:53Z</time>
      </trkpt>
      <trkpt lat="43.54496" lon="1.46963">
        <ele>230.919</ele>
        <time>2020-03-29T13:23:58Z</time>
      </trkpt>
      <trkpt lat="43.54492" lon="1.46959">
        <ele>231.554</ele>
        <time>2020-03-29T13:24:04Z</time>
      </trkpt>
      <trkpt lat="43.54491" lon="1.46958">
        <ele>231.925</ele>
        <time>2020-03-29T13:24:10Z</time>
      </trkpt>
      <trkpt lat="43.54485" lon="1.46953">
        <ele>232.493</ele>
        <time>2020-03-29T13:24:15Z</time>
      </trkpt>
      <trkpt lat="43.54482" lon="1.46953">
        <ele>233.065</ele>
        <time>2020-03-29T13:24:21Z</time>
      </trkpt>
      <trkpt lat="43.5448" lon="1.46948">
        <ele>233.736</ele>
        <time>2020-03-29T13:24:27Z</time>
      </trkpt>
      <trkpt lat="43.54478" lon="1.46941">
        <ele>234.393</ele>
        <time>2020-03-29T13:24:33Z</time>
      </trkpt>
      <trkpt lat="43.54476" lon="1.46934">
        <ele>235.03</ele>
        <time>2020-03-29T13:24:39Z</time>
      </trkpt>
      <trkpt lat="43.54472" lon="1.4693">
        <ele>235.624</ele>
        <time>2020-03-29T13:24:45Z</time>
      </trkpt>
      <trkpt lat="43.54469" lon="1.46922">
        <ele>236.184</ele>
        <time>2020-03-29T13:24:51Z</time>
      </trkpt>
      <trkpt lat="43.54465" lon="1.46913">
        <ele>236.729</ele>
        <time>2020-03-29T13:24:57Z</time>
      </trkpt>
      <trkpt lat="43.54462" lon="1.46908">
        <ele>237.261</ele>
        <time>2020-03-29T13:25:03Z</time>
      </trkpt>
      <trkpt lat="43.54459" lon="1.469">
        <ele>237.686</ele>
        <time>2020-03-29T13:25:08Z</time>
      </trkpt>
      <trkpt lat="43.54454" lon="1.4689">
        <ele>238.184</ele>
        <time>2020-03-29T13:25:14Z</time>
      </trkpt>
      <trkpt lat="43.54451" lon="1.46886">
        <ele>238.459</ele>
        <time>2020-03-29T13:25:19Z</time>
      </trkpt>
      <trkpt lat="43.54447" lon="1.46877">
        <ele>238.855</ele>
        <time>2020-03-29T13:25:24Z</time>
      </trkpt>
      <trkpt lat="43.54445" lon="1.46871">
        <ele>239.438</ele>
        <time>2020-03-29T13:25:30Z</time>
      </trkpt>
      <trkpt lat="43.54443" lon="1.46862">
        <ele>239.914</ele>
        <time>2020-03-29T13:25:35Z</time>
      </trkpt>
      <trkpt lat="43.54441" lon="1.46853">
        <ele>240.463</ele>
        <time>2020-03-29T13:25:41Z</time>
      </trkpt>
      <trkpt lat="43.54438" lon="1.46854">
        <ele>240.977</ele>
        <time>2020-03-29T13:25:47Z</time>
      </trkpt>
      <trkpt lat="43.54437" lon="1.46852">
        <ele>241.363</ele>
        <time>2020-03-29T13:25:52Z</time>
      </trkpt>
      <trkpt lat="43.54439" lon="1.46849">
        <ele>241.729</ele>
        <time>2020-03-29T13:25:58Z</time>
      </trkpt>
      <trkpt lat="43.54443" lon="1.46842">
        <ele>242.156</ele>
        <time>2020-03-29T13:26:04Z</time>
      </trkpt>
      <trkpt lat="43.54448" lon="1.46837">
        <ele>242.5</ele>
        <time>2020-03-29T13:26:09Z</time>
      </trkpt>
      <trkpt lat="43.54452" lon="1.46833">
        <ele>242.836</ele>
        <time>2020-03-29T13:26:14Z</time>
      </trkpt>
      <trkpt lat="43.54455" lon="1.46826">
        <ele>243.239</ele>
        <time>2020-03-29T13:26:20Z</time>
      </trkpt>
      <trkpt lat="43.54459" lon="1.46821">
        <ele>243.568</ele>
        <time>2020-03-29T13:26:25Z</time>
      </trkpt>
      <trkpt lat="43.54464" lon="1.46818">
        <ele>243.887</ele>
        <time>2020-03-29T13:26:30Z</time>
      </trkpt>
      <trkpt lat="43.54468" lon="1.46813">
        <ele>244.209</ele>
        <time>2020-03-29T13:26:35Z</time>
      </trkpt>
      <trkpt lat="43.54472" lon="1.46809">
        <ele>244.603</ele>
        <time>2020-03-29T13:26:41Z</time>
      </trkpt>
      <trkpt lat="43.54477" lon="1.46805">
        <ele>244.995</ele>
        <time>2020-03-29T13:26:47Z</time>
      </trkpt>
      <trkpt lat="43.54481" lon="1.468">
        <ele>245.406</ele>
        <time>2020-03-29T13:26:53Z</time>
      </trkpt>
      <trkpt lat="43.54484" lon="1.46798">
        <ele>245.781</ele>
        <time>2020-03-29T13:26:58Z</time>
      </trkpt>
      <trkpt lat="43.54488" lon="1.46796">
        <ele>246.321</ele>
        <time>2020-03-29T13:27:04Z</time>
      </trkpt>
      <trkpt lat="43.54491" lon="1.46793">
        <ele>246.841</ele>
        <time>2020-03-29T13:27:09Z</time>
      </trkpt>
      <trkpt lat="43.54495" lon="1.46789">
        <ele>247.502</ele>
        <time>2020-03-29T13:27:15Z</time>
      </trkpt>
      <trkpt lat="43.545" lon="1.46786">
        <ele>248.054</ele>
        <time>2020-03-29T13:27:20Z</time>
      </trkpt>
      <trkpt lat="43.54503" lon="1.46784">
        <ele>248.499</ele>
        <time>2020-03-29T13:27:25Z</time>
      </trkpt>
      <trkpt lat="43.54505" lon="1.46783">
        <ele>248.764</ele>
        <time>2020-03-29T13:27:31Z</time>
      </trkpt>
      <trkpt lat="43.54509" lon="1.46775">
        <ele>249.208</ele>
        <time>2020-03-29T13:27:36Z</time>
      </trkpt>
      <trkpt lat="43.54514" lon="1.46771">
        <ele>249.839</ele>
        <time>2020-03-29T13:27:42Z</time>
      </trkpt>
      <trkpt lat="43.54519" lon="1.46768">
        <ele>250.338</ele>
        <time>2020-03-29T13:27:47Z</time>
      </trkpt>
      <trkpt lat="43.54528" lon="1.46766">
        <ele>250.91</ele>
        <time>2020-03-29T13:27:53Z</time>
      </trkpt>
      <trkpt lat="43.54531" lon="1.46754">
        <ele>251.489</ele>
        <time>2020-03-29T13:27:59Z</time>
      </trkpt>
      <trkpt lat="43.54535" lon="1.46748">
        <ele>251.972</ele>
        <time>2020-03-29T13:28:04Z</time>
      </trkpt>
      <trkpt lat="43.54543" lon="1.46746">
        <ele>252.564</ele>
        <time>2020-03-29T13:28:10Z</time>
      </trkpt>
      <trkpt lat="43.5455" lon="1.46749">
        <ele>253.094</ele>
        <time>2020-03-29T13:28:15Z</time>
      </trkpt>
      <trkpt lat="43.54559" lon="1.46753">
        <ele>253.743</ele>
        <time>2020-03-29T13:28:21Z</time>
      </trkpt>
      <trkpt lat="43.54565" lon="1.46752">
        <ele>254.262</ele>
        <time>2020-03-29T13:28:26Z</time>
      </trkpt>
      <trkpt lat="43.54569" lon="1.46749">
        <ele>254.736</ele>
        <time>2020-03-29T13:28:31Z</time>
      </trkpt>
      <trkpt lat="43.54574" lon="1.46745">
        <ele>255.17</ele>
        <time>2020-03-29T13:28:36Z</time>
      </trkpt>
      <trkpt lat="43.54581" lon="1.46742">
        <ele>255.648</ele>
        <time>2020-03-29T13:28:42Z</time>
      </trkpt>
      <trkpt lat="43.54587" lon="1.4674">
        <ele>256.009</ele>
        <time>2020-03-29T13:28:47Z</time>
      </trkpt>
      <trkpt lat="43.54593" lon="1.46738">
        <ele>256.402</ele>
        <time>2020-03-29T13:28:53Z</time>
      </trkpt>
      <trkpt lat="43.54599" lon="1.46732">
        <ele>256.77</ele>
        <time>2020-03-29T13:28:59Z</time>
      </trkpt>
      <trkpt lat="43.54606" lon="1.46727">
        <ele>257.149</ele>
        <time>2020-03-29T13:29:05Z</time>
      </trkpt>
      <trkpt lat="43.54607" lon="1.46726">
        <ele>257.45</ele>
        <time>2020-03-29T13:29:10Z</time>
      </trkpt>
      <trkpt lat="43.54609" lon="1.4673">
        <ele>257.736</ele>
        <time>2020-03-29T13:29:15Z</time>
      </trkpt>
      <trkpt lat="43.5461" lon="1.46735">
        <ele>258.057</ele>
        <time>2020-03-29T13:29:21Z</time>
      </trkpt>
      <trkpt lat="43.54611" lon="1.46741">
        <ele>258.309</ele>
        <time>2020-03-29T13:29:26Z</time>
      </trkpt>
      <trkpt lat="43.54613" lon="1.46749">
        <ele>258.602</ele>
        <time>2020-03-29T13:29:32Z</time>
      </trkpt>
      <trkpt lat="43.54615" lon="1.46757">
        <ele>258.858</ele>
        <time>2020-03-29T13:29:37Z</time>
      </trkpt>
      <trkpt lat="43.54617" lon="1.46764">
        <ele>259.115</ele>
        <time>2020-03-29T13:29:42Z</time>
      </trkpt>
      <trkpt lat="43.54619" lon="1.4677">
        <ele>259.423</ele>
        <time>2020-03-29T13:29:48Z</time>
      </trkpt>
      <trkpt lat="43.54621" lon="1.46779">
        <ele>259.676</ele>
        <time>2020-03-29T13:29:53Z</time>
      </trkpt>
      <trkpt lat="43.54624" lon="1.4679">
        <ele>259.974</ele>
        <time>2020-03-29T13:29:59Z</time>
      </trkpt>
      <trkpt lat="43.54627" lon="1.46797">
        <ele>260.256</ele>
        <time>2020-03-29T13:30:05Z</time>
      </trkpt>
      <trkpt lat="43.54629" lon="1.46804">
        <ele>260.481</ele>
        <time>2020-03-29T13:30:10Z</time>
      </trkpt>
      <trkpt lat="43.54632" lon="1.46811">
        <ele>260.697</ele>
        <time>2020-03-29T13:30:15Z</time>
      </trkpt>
      <trkpt lat="43.54637" lon="1.46815">
        <ele>260.902</ele>
        <time>2020-03-29T13:30:20Z</time>
      </trkpt>
      <trkpt lat="43.54641" lon="1.46817">
        <ele>261.134</ele>
        <time>2020-03-29T13:30:26Z</time>
      </trkpt>
      <trkpt lat="43.54647" lon="1.46819">
        <ele>261.351</ele>
        <time>2020-03-29T13:30:32Z</time>
      </trkpt>
      <trkpt lat="43.54652" lon="1.46818">
        <ele>261.515</ele>
        <time>2020-03-29T13:30:37Z</time>
      </trkpt>
      <trkpt lat="43.54659" lon="1.46815">
        <ele>261.71</ele>
        <time>2020-03-29T13:30:43Z</time>
      </trkpt>
      <trkpt lat="43.54665" lon="1.46809">
        <ele>261.918</ele>
        <time>2020-03-29T13:30:49Z</time>
      </trkpt>
      <trkpt lat="43.54671" lon="1.46805">
        <ele>262.15</ele>
        <time>2020-03-29T13:30:55Z</time>
      </trkpt>
      <trkpt lat="43.54675" lon="1.468">
        <ele>262.365</ele>
        <time>2020-03-29T13:31:00Z</time>
      </trkpt>
      <trkpt lat="43.5468" lon="1.46793">
        <ele>262.658</ele>
        <time>2020-03-29T13:31:06Z</time>
      </trkpt>
      <trkpt lat="43.54683" lon="1.46789">
        <ele>262.875</ele>
        <time>2020-03-29T13:31:11Z</time>
      </trkpt>
      <trkpt lat="43.54687" lon="1.46784">
        <ele>263.15</ele>
        <time>2020-03-29T13:31:16Z</time>
      </trkpt>
      <trkpt lat="43.54692" lon="1.46778">
        <ele>263.49</ele>
        <time>2020-03-29T13:31:22Z</time>
      </trkpt>
      <trkpt lat="43.54695" lon="1.46772">
        <ele>263.809</ele>
        <time>2020-03-29T13:31:28Z</time>
      </trkpt>
      <trkpt lat="43.547" lon="1.46767">
        <ele>264.114</ele>
        <time>2020-03-29T13:31:34Z</time>
      </trkpt>
      <trkpt lat="43.54706" lon="1.46762">
        <ele>264.361</ele>
        <time>2020-03-29T13:31:39Z</time>
      </trkpt>
      <trkpt lat="43.54711" lon="1.46759">
        <ele>264.646</ele>
        <time>2020-03-29T13:31:45Z</time>
      </trkpt>
      <trkpt lat="43.54716" lon="1.46755">
        <ele>264.872</ele>
        <time>2020-03-29T13:31:50Z</time>
      </trkpt>
      <trkpt lat="43.54722" lon="1.46752">
        <ele>265.088</ele>
        <time>2020-03-29T13:31:55Z</time>
      </trkpt>
      <trkpt lat="43.54727" lon="1.46748">
        <ele>265.289</ele>
        <time>2020-03-29T13:32:00Z</time>
      </trkpt>
      <trkpt lat="43.54731" lon="1.46743">
        <ele>265.508</ele>
        <time>2020-03-29T13:32:06Z</time>
      </trkpt>
      <trkpt lat="43.54736" lon="1.46739">
        <ele>265.718</ele>
        <time>2020-03-29T13:32:12Z</time>
      </trkpt>
      <trkpt lat="43.5474" lon="1.46735">
        <ele>265.885</ele>
        <time>2020-03-29T13:32:17Z</time>
      </trkpt>
      <trkpt lat="43.54743" lon="1.46731">
        <ele>266.044</ele>
        <time>2020-03-29T13:32:22Z</time>
      </trkpt>
      <trkpt lat="43.54747" lon="1.46722">
        <ele>266.222</ele>
        <time>2020-03-29T13:32:28Z</time>
      </trkpt>
      <trkpt lat="43.54751" lon="1.46716">
        <ele>266.383</ele>
        <time>2020-03-29T13:32:34Z</time>
      </trkpt>
      <trkpt lat="43.54754" lon="1.46712">
        <ele>266.486</ele>
        <time>2020-03-29T13:32:39Z</time>
      </trkpt>
      <trkpt lat="43.54756" lon="1.46712">
        <ele>266.619</ele>
        <time>2020-03-29T13:32:45Z</time>
      </trkpt>
      <trkpt lat="43.54763" lon="1.46712">
        <ele>266.708</ele>
        <time>2020-03-29T13:32:50Z</time>
      </trkpt>
      <trkpt lat="43.54765" lon="1.46709">
        <ele>266.797</ele>
        <time>2020-03-29T13:32:56Z</time>
      </trkpt>
      <trkpt lat="43.54766" lon="1.46709">
        <ele>266.885</ele>
        <time>2020-03-29T13:33:02Z</time>
      </trkpt>
      <trkpt lat="43.54769" lon="1.4671">
        <ele>266.928</ele>
        <time>2020-03-29T13:33:07Z</time>
      </trkpt>
      <trkpt lat="43.54776" lon="1.46711">
        <ele>266.987</ele>
        <time>2020-03-29T13:33:13Z</time>
      </trkpt>
      <trkpt lat="43.54782" lon="1.46714">
        <ele>267.012</ele>
        <time>2020-03-29T13:33:18Z</time>
      </trkpt>
      <trkpt lat="43.54788" lon="1.46718">
        <ele>267.027</ele>
        <time>2020-03-29T13:33:24Z</time>
      </trkpt>
      <trkpt lat="43.54796" lon="1.46722">
        <ele>267.032</ele>
        <time>2020-03-29T13:33:29Z</time>
      </trkpt>
      <trkpt lat="43.54801" lon="1.46726">
        <ele>267.032</ele>
        <time>2020-03-29T13:33:35Z</time>
      </trkpt>
      <trkpt lat="43.54801" lon="1.46728">
        <ele>267.038</ele>
        <time>2020-03-29T13:33:41Z</time>
      </trkpt>
      <trkpt lat="43.54797" lon="1.46733">
        <ele>267.053</ele>
        <time>2020-03-29T13:33:47Z</time>
      </trkpt>
      <trkpt lat="43.54795" lon="1.4674">
        <ele>267.075</ele>
        <time>2020-03-29T13:33:53Z</time>
      </trkpt>
      <trkpt lat="43.54792" lon="1.46748">
        <ele>267.096</ele>
        <time>2020-03-29T13:33:58Z</time>
      </trkpt>
      <trkpt lat="43.5479" lon="1.46759">
        <ele>267.125</ele>
        <time>2020-03-29T13:34:03Z</time>
      </trkpt>
      <trkpt lat="43.54788" lon="1.46767">
        <ele>267.164</ele>
        <time>2020-03-29T13:34:09Z</time>
      </trkpt>
      <trkpt lat="43.54788" lon="1.46774">
        <ele>267.193</ele>
        <time>2020-03-29T13:34:14Z</time>
      </trkpt>
      <trkpt lat="43.54789" lon="1.46777">
        <ele>267.217</ele>
        <time>2020-03-29T13:34:19Z</time>
      </trkpt>
      <trkpt lat="43.54788" lon="1.46782">
        <ele>267.247</ele>
        <time>2020-03-29T13:34:24Z</time>
      </trkpt>
      <trkpt lat="43.54784" lon="1.46786">
        <ele>267.292</ele>
        <time>2020-03-29T13:34:30Z</time>
      </trkpt>
      <trkpt lat="43.54778" lon="1.4679">
        <ele>267.335</ele>
        <time>2020-03-29T13:34:36Z</time>
      </trkpt>
      <trkpt lat="43.54775" lon="1.46796">
        <ele>267.374</ele>
        <time>2020-03-29T13:34:42Z</time>
      </trkpt>
      <trkpt lat="43.54773" lon="1.46801">
        <ele>267.411</ele>
        <time>2020-03-29T13:34:48Z</time>
      </trkpt>
      <trkpt lat="43.54772" lon="1.46802">
        <ele>267.437</ele>
        <time>2020-03-29T13:34:53Z</time>
      </trkpt>
      <trkpt lat="43.54767" lon="1.46807">
        <ele>267.463</ele>
        <time>2020-03-29T13:34:59Z</time>
      </trkpt>
      <trkpt lat="43.54763" lon="1.46813">
        <ele>267.48</ele>
        <time>2020-03-29T13:35:05Z</time>
      </trkpt>
      <trkpt lat="43.54758" lon="1.46819">
        <ele>267.485</ele>
        <time>2020-03-29T13:35:10Z</time>
      </trkpt>
      <trkpt lat="43.54754" lon="1.46823">
        <ele>267.49</ele>
        <time>2020-03-29T13:35:16Z</time>
      </trkpt>
      <trkpt lat="43.54753" lon="1.46824">
        <ele>267.492</ele>
        <time>2020-03-29T13:35:22Z</time>
      </trkpt>
      <trkpt lat="43.54752" lon="1.46824">
        <ele>267.492</ele>
        <time>2020-03-29T13:35:28Z</time>
      </trkpt>
      <trkpt lat="43.54752" lon="1.46824">
        <ele>267.493</ele>
        <time>2020-03-29T13:35:33Z</time>
      </trkpt>
      <trkpt lat="43.54751" lon="1.46825">
        <ele>267.494</ele>
        <time>2020-03-29T13:35:38Z</time>
      </trkpt>
      <trkpt lat="43.54747" lon="1.46829">
        <ele>267.491</ele>
        <time>2020-03-29T13:35:44Z</time>
      </trkpt>
      <trkpt lat="43.54742" lon="1.46833">
        <ele>267.486</ele>
        <time>2020-03-29T13:35:49Z</time>
      </trkpt>
      <trkpt lat="43.54739" lon="1.46836">
        <ele>267.48</ele>
        <time>2020-03-29T13:35:54Z</time>
      </trkpt>
      <trkpt lat="43.54733" lon="1.46841">
        <ele>267.479</ele>
        <time>2020-03-29T13:36:00Z</time>
      </trkpt>
      <trkpt lat="43.5473" lon="1.46847">
        <ele>267.481</ele>
        <time>2020-03-29T13:36:05Z</time>
      </trkpt>
      <trkpt lat="43.54726" lon="1.46855">
        <ele>267.481</ele>
        <time>2020-03-29T13:36:11Z</time>
      </trkpt>
      <trkpt lat="43.54723" lon="1.46862">
        <ele>267.482</ele>
        <time>2020-03-29T13:36:16Z</time>
      </trkpt>
      <trkpt lat="43.5472" lon="1.4687">
        <ele>267.484</ele>
        <time>2020-03-29T13:36:21Z</time>
      </trkpt>
      <trkpt lat="43.54716" lon="1.46876">
        <ele>267.486</ele>
        <time>2020-03-29T13:36:27Z</time>
      </trkpt>
      <trkpt lat="43.54711" lon="1.46882">
        <ele>267.489</ele>
        <time>2020-03-29T13:36:32Z</time>
      </trkpt>
      <trkpt lat="43.54707" lon="1.46888">
        <ele>267.495</ele>
        <time>2020-03-29T13:36:37Z</time>
      </trkpt>
      <trkpt lat="43.54703" lon="1.46895">
        <ele>267.509</ele>
        <time>2020-03-29T13:36:43Z</time>
      </trkpt>
      <trkpt lat="43.54699" lon="1.46901">
        <ele>267.513</ele>
        <time>2020-03-29T13:36:48Z</time>
      </trkpt>
      <trkpt lat="43.54695" lon="1.46907">
        <ele>267.516</ele>
        <time>2020-03-29T13:36:54Z</time>
      </trkpt>
      <trkpt lat="43.54693" lon="1.46912">
        <ele>267.52</ele>
        <time>2020-03-29T13:37:00Z</time>
      </trkpt>
      <trkpt lat="43.5469" lon="1.46916">
        <ele>267.519</ele>
        <time>2020-03-29T13:37:06Z</time>
      </trkpt>
      <trkpt lat="43.54686" lon="1.46922">
        <ele>267.519</ele>
        <time>2020-03-29T13:37:11Z</time>
      </trkpt>
      <trkpt lat="43.54683" lon="1.46929">
        <ele>267.518</ele>
        <time>2020-03-29T13:37:17Z</time>
      </trkpt>
      <trkpt lat="43.54681" lon="1.46935">
        <ele>267.514</ele>
        <time>2020-03-29T13:37:22Z</time>
      </trkpt>
      <trkpt lat="43.54675" lon="1.4694">
        <ele>267.502</ele>
        <time>2020-03-29T13:37:28Z</time>
      </trkpt>
      <trkpt lat="43.54669" lon="1.46944">
        <ele>267.492</ele>
        <time>2020-03-29T13:37:33Z</time>
      </trkpt>
      <trkpt lat="43.54665" lon="1.46948">
        <ele>267.478</ele>
        <time>2020-03-29T13:37:39Z</time>
      </trkpt>
      <trkpt lat="43.54661" lon="1.4695">
        <ele>267.468</ele>
        <time>2020-03-29T13:37:44Z</time>
      </trkpt>
      <trkpt lat="43.54656" lon="1.46954">
        <ele>267.458</ele>
        <time>2020-03-29T13:37:50Z</time>
      </trkpt>
      <trkpt lat="43.54653" lon="1.46959">
        <ele>267.452</ele>
        <time>2020-03-29T13:37:55Z</time>
      </trkpt>
      <trkpt lat="43.5465" lon="1.46967">
        <ele>267.445</ele>
        <time>2020-03-29T13:38:01Z</time>
      </trkpt>
      <trkpt lat="43.54651" lon="1.46977">
        <ele>267.429</ele>
        <time>2020-03-29T13:38:06Z</time>
      </trkpt>
      <trkpt lat="43.54656" lon="1.46982">
        <ele>267.387</ele>
        <time>2020-03-29T13:38:12Z</time>
      </trkpt>
      <trkpt lat="43.54662" lon="1.46981">
        <ele>267.36</ele>
        <time>2020-03-29T13:38:17Z</time>
      </trkpt>
      <trkpt lat="43.54665" lon="1.46981">
        <ele>267.334</ele>
        <time>2020-03-29T13:38:23Z</time>
      </trkpt>
      <trkpt lat="43.54666" lon="1.4698">
        <ele>267.31</ele>
        <time>2020-03-29T13:38:29Z</time>
      </trkpt>
      <trkpt lat="43.54669" lon="1.4698">
        <ele>267.292</ele>
        <time>2020-03-29T13:38:35Z</time>
      </trkpt>
      <trkpt lat="43.54673" lon="1.46983">
        <ele>267.262</ele>
        <time>2020-03-29T13:38:41Z</time>
      </trkpt>
      <trkpt lat="43.54675" lon="1.4699">
        <ele>267.234</ele>
        <time>2020-03-29T13:38:46Z</time>
      </trkpt>
      <trkpt lat="43.54677" lon="1.46996">
        <ele>267.204</ele>
        <time>2020-03-29T13:38:51Z</time>
      </trkpt>
      <trkpt lat="43.54679" lon="1.47003">
        <ele>267.167</ele>
        <time>2020-03-29T13:38:56Z</time>
      </trkpt>
      <trkpt lat="43.54681" lon="1.47007">
        <ele>267.119</ele>
        <time>2020-03-29T13:39:02Z</time>
      </trkpt>
      <trkpt lat="43.54685" lon="1.47012">
        <ele>267.071</ele>
        <time>2020-03-29T13:39:08Z</time>
      </trkpt>
      <trkpt lat="43.54684" lon="1.47015">
        <ele>267.032</ele>
        <time>2020-03-29T13:39:13Z</time>
      </trkpt>
      <trkpt lat="43.54683" lon="1.47019">
        <ele>266.989</ele>
        <time>2020-03-29T13:39:19Z</time>
      </trkpt>
      <trkpt lat="43.54677" lon="1.47028">
        <ele>266.956</ele>
        <time>2020-03-29T13:39:25Z</time>
      </trkpt>
      <trkpt lat="43.54673" lon="1.47034">
        <ele>266.927</ele>
        <time>2020-03-29T13:39:30Z</time>
      </trkpt>
      <trkpt lat="43.5467" lon="1.47043">
        <ele>266.884</ele>
        <time>2020-03-29T13:39:36Z</time>
      </trkpt>
      <trkpt lat="43.5467" lon="1.47049">
        <ele>266.83</ele>
        <time>2020-03-29T13:39:42Z</time>
      </trkpt>
      <trkpt lat="43.54672" lon="1.4705">
        <ele>266.767</ele>
        <time>2020-03-29T13:39:48Z</time>
      </trkpt>
      <trkpt lat="43.54676" lon="1.47048">
        <ele>266.687</ele>
        <time>2020-03-29T13:39:54Z</time>
      </trkpt>
      <trkpt lat="43.5468" lon="1.47049">
        <ele>266.58</ele>
        <time>2020-03-29T13:40:00Z</time>
      </trkpt>
      <trkpt lat="43.54685" lon="1.47049">
        <ele>266.459</ele>
        <time>2020-03-29T13:40:06Z</time>
      </trkpt>
      <trkpt lat="43.54686" lon="1.47051">
        <ele>266.33</ele>
        <time>2020-03-29T13:40:12Z</time>
      </trkpt>
      <trkpt lat="43.5469" lon="1.47058">
        <ele>266.196</ele>
        <time>2020-03-29T13:40:17Z</time>
      </trkpt>
      <trkpt lat="43.54696" lon="1.47067">
        <ele>266.015</ele>
        <time>2020-03-29T13:40:23Z</time>
      </trkpt>
      <trkpt lat="43.54699" lon="1.47074">
        <ele>265.833</ele>
        <time>2020-03-29T13:40:29Z</time>
      </trkpt>
      <trkpt lat="43.54699" lon="1.47076">
        <ele>265.713</ele>
        <time>2020-03-29T13:40:34Z</time>
      </trkpt>
      <trkpt lat="43.54698" lon="1.47087">
        <ele>265.539</ele>
        <time>2020-03-29T13:40:40Z</time>
      </trkpt>
      <trkpt lat="43.54695" lon="1.47092">
        <ele>265.379</ele>
        <time>2020-03-29T13:40:46Z</time>
      </trkpt>
      <trkpt lat="43.54693" lon="1.47096">
        <ele>265.255</ele>
        <time>2020-03-29T13:40:51Z</time>
      </trkpt>
      <trkpt lat="43.5469" lon="1.47102">
        <ele>265.111</ele>
        <time>2020-03-29T13:40:57Z</time>
      </trkpt>
      <trkpt lat="43.54686" lon="1.4711">
        <ele>264.986</ele>
        <time>2020-03-29T13:41:03Z</time>
      </trkpt>
      <trkpt lat="43.54681" lon="1.47123">
        <ele>264.864</ele>
        <time>2020-03-29T13:41:08Z</time>
      </trkpt>
      <trkpt lat="43.54681" lon="1.4713">
        <ele>264.725</ele>
        <time>2020-03-29T13:41:14Z</time>
      </trkpt>
      <trkpt lat="43.54682" lon="1.47129">
        <ele>264.594</ele>
        <time>2020-03-29T13:41:20Z</time>
      </trkpt>
      <trkpt lat="43.54682" lon="1.47134">
        <ele>264.448</ele>
        <time>2020-03-29T13:41:26Z</time>
      </trkpt>
      <trkpt lat="43.54681" lon="1.47137">
        <ele>264.318</ele>
        <time>2020-03-29T13:41:31Z</time>
      </trkpt>
      <trkpt lat="43.54678" lon="1.47145">
        <ele>264.154</ele>
        <time>2020-03-29T13:41:37Z</time>
      </trkpt>
      <trkpt lat="43.54672" lon="1.47149">
        <ele>264.009</ele>
        <time>2020-03-29T13:41:42Z</time>
      </trkpt>
      <trkpt lat="43.5467" lon="1.47151">
        <ele>263.917</ele>
        <time>2020-03-29T13:41:47Z</time>
      </trkpt>
      <trkpt lat="43.54672" lon="1.47159">
        <ele>263.762</ele>
        <time>2020-03-29T13:41:53Z</time>
      </trkpt>
      <trkpt lat="43.54672" lon="1.47164">
        <ele>263.573</ele>
        <time>2020-03-29T13:41:59Z</time>
      </trkpt>
      <trkpt lat="43.54672" lon="1.47171">
        <ele>263.421</ele>
        <time>2020-03-29T13:42:04Z</time>
      </trkpt>
      <trkpt lat="43.54674" lon="1.47183">
        <ele>263.235</ele>
        <time>2020-03-29T13:42:10Z</time>
      </trkpt>
      <trkpt lat="43.54675" lon="1.47187">
        <ele>263.054</ele>
        <time>2020-03-29T13:42:16Z</time>
      </trkpt>
      <trkpt lat="43.54676" lon="1.4719">
        <ele>262.936</ele>
        <time>2020-03-29T13:42:22Z</time>
      </trkpt>
      <trkpt lat="43.54676" lon="1.4719">
        <ele>262.922</ele>
        <time>2020-03-29T13:42:27Z</time>
      </trkpt>
      <trkpt lat="43.54678" lon="1.47195">
        <ele>262.772</ele>
        <time>2020-03-29T13:42:33Z</time>
      </trkpt>
      <trkpt lat="43.54685" lon="1.47204">
        <ele>262.572</ele>
        <time>2020-03-29T13:42:39Z</time>
      </trkpt>
      <trkpt lat="43.54689" lon="1.4721">
        <ele>262.402</ele>
        <time>2020-03-29T13:42:44Z</time>
      </trkpt>
      <trkpt lat="43.54692" lon="1.47216">
        <ele>262.231</ele>
        <time>2020-03-29T13:42:49Z</time>
      </trkpt>
      <trkpt lat="43.54696" lon="1.4722">
        <ele>262.035</ele>
        <time>2020-03-29T13:42:55Z</time>
      </trkpt>
      <trkpt lat="43.547" lon="1.47225">
        <ele>261.882</ele>
        <time>2020-03-29T13:43:00Z</time>
      </trkpt>
      <trkpt lat="43.54702" lon="1.4723">
        <ele>261.714</ele>
        <time>2020-03-29T13:43:06Z</time>
      </trkpt>
      <trkpt lat="43.54706" lon="1.47233">
        <ele>261.559</ele>
        <time>2020-03-29T13:43:12Z</time>
      </trkpt>
      <trkpt lat="43.54709" lon="1.47234">
        <ele>261.418</ele>
        <time>2020-03-29T13:43:18Z</time>
      </trkpt>
      <trkpt lat="43.54713" lon="1.47235">
        <ele>261.309</ele>
        <time>2020-03-29T13:43:23Z</time>
      </trkpt>
      <trkpt lat="43.54716" lon="1.47235">
        <ele>261.186</ele>
        <time>2020-03-29T13:43:29Z</time>
      </trkpt>
      <trkpt lat="43.54718" lon="1.47234">
        <ele>261.106</ele>
        <time>2020-03-29T13:43:34Z</time>
      </trkpt>
      <trkpt lat="43.54721" lon="1.47233">
        <ele>260.978</ele>
        <time>2020-03-29T13:43:40Z</time>
      </trkpt>
      <trkpt lat="43.54729" lon="1.47234">
        <ele>260.829</ele>
        <time>2020-03-29T13:43:46Z</time>
      </trkpt>
      <trkpt lat="43.54738" lon="1.47238">
        <ele>260.684</ele>
        <time>2020-03-29T13:43:51Z</time>
      </trkpt>
      <trkpt lat="43.54745" lon="1.47245">
        <ele>260.515</ele>
        <time>2020-03-29T13:43:57Z</time>
      </trkpt>
      <trkpt lat="43.54748" lon="1.47248">
        <ele>260.371</ele>
        <time>2020-03-29T13:44:02Z</time>
      </trkpt>
      <trkpt lat="43.54751" lon="1.47253">
        <ele>260.203</ele>
        <time>2020-03-29T13:44:08Z</time>
      </trkpt>
      <trkpt lat="43.54755" lon="1.47257">
        <ele>260.048</ele>
        <time>2020-03-29T13:44:14Z</time>
      </trkpt>
      <trkpt lat="43.54757" lon="1.47259">
        <ele>259.918</ele>
        <time>2020-03-29T13:44:20Z</time>
      </trkpt>
      <trkpt lat="43.54753" lon="1.47272">
        <ele>259.788</ele>
        <time>2020-03-29T13:44:25Z</time>
      </trkpt>
      <trkpt lat="43.54748" lon="1.47286">
        <ele>259.618</ele>
        <time>2020-03-29T13:44:31Z</time>
      </trkpt>
      <trkpt lat="43.54746" lon="1.47291">
        <ele>259.444</ele>
        <time>2020-03-29T13:44:36Z</time>
      </trkpt>
      <trkpt lat="43.54742" lon="1.47295">
        <ele>259.271</ele>
        <time>2020-03-29T13:44:41Z</time>
      </trkpt>
      <trkpt lat="43.5474" lon="1.47296">
        <ele>259.064</ele>
        <time>2020-03-29T13:44:47Z</time>
      </trkpt>
      <trkpt lat="43.5474" lon="1.47295">
        <ele>259.042</ele>
        <time>2020-03-29T13:44:53Z</time>
      </trkpt>
      <trkpt lat="43.5474" lon="1.47296">
        <ele>258.863</ele>
        <time>2020-03-29T13:44:59Z</time>
      </trkpt>
      <trkpt lat="43.54739" lon="1.47297">
        <ele>258.645</ele>
        <time>2020-03-29T13:45:05Z</time>
      </trkpt>
      <trkpt lat="43.54734" lon="1.47303">
        <ele>258.382</ele>
        <time>2020-03-29T13:45:11Z</time>
      </trkpt>
      <trkpt lat="43.54731" lon="1.47307">
        <ele>258.118</ele>
        <time>2020-03-29T13:45:17Z</time>
      </trkpt>
      <trkpt lat="43.54728" lon="1.47309">
        <ele>257.897</ele>
        <time>2020-03-29T13:45:23Z</time>
      </trkpt>
      <trkpt lat="43.54722" lon="1.47318">
        <ele>257.686</ele>
        <time>2020-03-29T13:45:28Z</time>
      </trkpt>
      <trkpt lat="43.54719" lon="1.47326">
        <ele>257.435</ele>
        <time>2020-03-29T13:45:34Z</time>
      </trkpt>
      <trkpt lat="43.54715" lon="1.47331">
        <ele>257.198</ele>
        <time>2020-03-29T13:45:40Z</time>
      </trkpt>
      <trkpt lat="43.54712" lon="1.47335">
        <ele>256.971</ele>
        <time>2020-03-29T13:45:46Z</time>
      </trkpt>
      <trkpt lat="43.54707" lon="1.47337">
        <ele>256.748</ele>
        <time>2020-03-29T13:45:52Z</time>
      </trkpt>
      <trkpt lat="43.54702" lon="1.4734">
        <ele>256.54</ele>
        <time>2020-03-29T13:45:58Z</time>
      </trkpt>
      <trkpt lat="43.54693" lon="1.47342">
        <ele>256.377</ele>
        <time>2020-03-29T13:46:03Z</time>
      </trkpt>
      <trkpt lat="43.54688" lon="1.47347">
        <ele>256.197</ele>
        <time>2020-03-29T13:46:09Z</time>
      </trkpt>
      <trkpt lat="43.54686" lon="1.47351">
        <ele>256.021</ele>
        <time>2020-03-29T13:46:15Z</time>
      </trkpt>
      <trkpt lat="43.54684" lon="1.47355">
        <ele>255.859</ele>
        <time>2020-03-29T13:46:21Z</time>
      </trkpt>
      <trkpt lat="43.54681" lon="1.47357">
        <ele>255.583</ele>
        <time>2020-03-29T13:46:27Z</time>
      </trkpt>
      <trkpt lat="43.54678" lon="1.47361">
        <ele>255.294</ele>
        <time>2020-03-29T13:46:33Z</time>
      </trkpt>
      <trkpt lat="43.54675" lon="1.47366">
        <ele>255.092</ele>
        <time>2020-03-29T13:46:38Z</time>
      </trkpt>
      <trkpt lat="43.54671" lon="1.47369">
        <ele>254.884</ele>
        <time>2020-03-29T13:46:44Z</time>
      </trkpt>
      <trkpt lat="43.54667" lon="1.47371">
        <ele>254.621</ele>
        <time>2020-03-29T13:46:49Z</time>
      </trkpt>
      <trkpt lat="43.54662" lon="1.4738">
        <ele>254.256</ele>
        <time>2020-03-29T13:46:55Z</time>
      </trkpt>
      <trkpt lat="43.54659" lon="1.47383">
        <ele>254.007</ele>
        <time>2020-03-29T13:47:00Z</time>
      </trkpt>
      <trkpt lat="43.54654" lon="1.4739">
        <ele>253.647</ele>
        <time>2020-03-29T13:47:06Z</time>
      </trkpt>
      <trkpt lat="43.54651" lon="1.47396">
        <ele>253.364</ele>
        <time>2020-03-29T13:47:11Z</time>
      </trkpt>
      <trkpt lat="43.54647" lon="1.47402">
        <ele>253.047</ele>
        <time>2020-03-29T13:47:17Z</time>
      </trkpt>
      <trkpt lat="43.54643" lon="1.47407">
        <ele>252.736</ele>
        <time>2020-03-29T13:47:23Z</time>
      </trkpt>
      <trkpt lat="43.54638" lon="1.47412">
        <ele>252.432</ele>
        <time>2020-03-29T13:47:29Z</time>
      </trkpt>
      <trkpt lat="43.54631" lon="1.47423">
        <ele>252.107</ele>
        <time>2020-03-29T13:47:35Z</time>
      </trkpt>
      <trkpt lat="43.54629" lon="1.47428">
        <ele>251.818</ele>
        <time>2020-03-29T13:47:40Z</time>
      </trkpt>
      <trkpt lat="43.54625" lon="1.47432">
        <ele>251.536</ele>
        <time>2020-03-29T13:47:45Z</time>
      </trkpt>
      <trkpt lat="43.54617" lon="1.47441">
        <ele>251.206</ele>
        <time>2020-03-29T13:47:51Z</time>
      </trkpt>
      <trkpt lat="43.54611" lon="1.47447">
        <ele>250.932</ele>
        <time>2020-03-29T13:47:56Z</time>
      </trkpt>
      <trkpt lat="43.54606" lon="1.47456">
        <ele>250.618</ele>
        <time>2020-03-29T13:48:02Z</time>
      </trkpt>
      <trkpt lat="43.54602" lon="1.47463">
        <ele>250.376</ele>
        <time>2020-03-29T13:48:07Z</time>
      </trkpt>
      <trkpt lat="43.54597" lon="1.47468">
        <ele>250.151</ele>
        <time>2020-03-29T13:48:12Z</time>
      </trkpt>
      <trkpt lat="43.54591" lon="1.47475">
        <ele>249.898</ele>
        <time>2020-03-29T13:48:18Z</time>
      </trkpt>
      <trkpt lat="43.54588" lon="1.47478">
        <ele>249.704</ele>
        <time>2020-03-29T13:48:23Z</time>
      </trkpt>
      <trkpt lat="43.54583" lon="1.47481">
        <ele>249.488</ele>
        <time>2020-03-29T13:48:29Z</time>
      </trkpt>
      <trkpt lat="43.54581" lon="1.47482">
        <ele>249.371</ele>
        <time>2020-03-29T13:48:35Z</time>
      </trkpt>
      <trkpt lat="43.54578" lon="1.47485">
        <ele>249.201</ele>
        <time>2020-03-29T13:48:40Z</time>
      </trkpt>
      <trkpt lat="43.54574" lon="1.4749">
        <ele>248.998</ele>
        <time>2020-03-29T13:48:46Z</time>
      </trkpt>
      <trkpt lat="43.5457" lon="1.47493">
        <ele>248.799</ele>
        <time>2020-03-29T13:48:52Z</time>
      </trkpt>
      <trkpt lat="43.54571" lon="1.47495">
        <ele>248.632</ele>
        <time>2020-03-29T13:48:57Z</time>
      </trkpt>
      <trkpt lat="43.54569" lon="1.47498">
        <ele>248.493</ele>
        <time>2020-03-29T13:49:02Z</time>
      </trkpt>
      <trkpt lat="43.54564" lon="1.47502">
        <ele>248.295</ele>
        <time>2020-03-29T13:49:08Z</time>
      </trkpt>
      <trkpt lat="43.54559" lon="1.47505">
        <ele>248.136</ele>
        <time>2020-03-29T13:49:13Z</time>
      </trkpt>
      <trkpt lat="43.5455" lon="1.47511">
        <ele>247.919</ele>
        <time>2020-03-29T13:49:19Z</time>
      </trkpt>
      <trkpt lat="43.54545" lon="1.47518">
        <ele>247.683</ele>
        <time>2020-03-29T13:49:25Z</time>
      </trkpt>
      <trkpt lat="43.54539" lon="1.47525">
        <ele>247.451</ele>
        <time>2020-03-29T13:49:31Z</time>
      </trkpt>
      <trkpt lat="43.54533" lon="1.47531">
        <ele>247.256</ele>
        <time>2020-03-29T13:49:36Z</time>
      </trkpt>
      <trkpt lat="43.54529" lon="1.47538">
        <ele>247.023</ele>
        <time>2020-03-29T13:49:42Z</time>
      </trkpt>
      <trkpt lat="43.54526" lon="1.47544">
        <ele>246.806</ele>
        <time>2020-03-29T13:49:48Z</time>
      </trkpt>
      <trkpt lat="43.54522" lon="1.4755">
        <ele>246.602</ele>
        <time>2020-03-29T13:49:54Z</time>
      </trkpt>
      <trkpt lat="43.54515" lon="1.47557">
        <ele>246.395</ele>
        <time>2020-03-29T13:50:00Z</time>
      </trkpt>
      <trkpt lat="43.54512" lon="1.47558">
        <ele>246.217</ele>
        <time>2020-03-29T13:50:05Z</time>
      </trkpt>
      <trkpt lat="43.5451" lon="1.47564">
        <ele>245.999</ele>
        <time>2020-03-29T13:50:11Z</time>
      </trkpt>
      <trkpt lat="43.54506" lon="1.47569">
        <ele>245.82</ele>
        <time>2020-03-29T13:50:16Z</time>
      </trkpt>
      <trkpt lat="43.54503" lon="1.47578">
        <ele>245.597</ele>
        <time>2020-03-29T13:50:22Z</time>
      </trkpt>
      <trkpt lat="43.54496" lon="1.47588">
        <ele>245.368</ele>
        <time>2020-03-29T13:50:28Z</time>
      </trkpt>
      <trkpt lat="43.5449" lon="1.47598">
        <ele>245.152</ele>
        <time>2020-03-29T13:50:33Z</time>
      </trkpt>
      <trkpt lat="43.54486" lon="1.47604">
        <ele>244.926</ele>
        <time>2020-03-29T13:50:38Z</time>
      </trkpt>
      <trkpt lat="43.54485" lon="1.47603">
        <ele>244.71</ele>
        <time>2020-03-29T13:50:44Z</time>
      </trkpt>
      <trkpt lat="43.54481" lon="1.47609">
        <ele>244.504</ele>
        <time>2020-03-29T13:50:49Z</time>
      </trkpt>
      <trkpt lat="43.54476" lon="1.47614">
        <ele>244.253</ele>
        <time>2020-03-29T13:50:55Z</time>
      </trkpt>
      <trkpt lat="43.54473" lon="1.47623">
        <ele>243.988</ele>
        <time>2020-03-29T13:51:01Z</time>
      </trkpt>
      <trkpt lat="43.54474" lon="1.47633">
        <ele>243.753</ele>
        <time>2020-03-29T13:51:06Z</time>
      </trkpt>
      <trkpt lat="43.54479" lon="1.47632">
        <ele>243.456</ele>
        <time>2020-03-29T13:51:12Z</time>
      </trkpt>
      <trkpt lat="43.5448" lon="1.47627">
        <ele>243.154</ele>
        <time>2020-03-29T13:51:18Z</time>
      </trkpt>
      <trkpt lat="43.5448" lon="1.47627">
        <ele>243.059</ele>
        <time>2020-03-29T13:51:23Z</time>
      </trkpt>
      <trkpt lat="43.54482" lon="1.47628">
        <ele>242.717</ele>
        <time>2020-03-29T13:51:29Z</time>
      </trkpt>
      <trkpt lat="43.54483" lon="1.47632">
        <ele>242.385</ele>
        <time>2020-03-29T13:51:34Z</time>
      </trkpt>
      <trkpt lat="43.54481" lon="1.47636">
        <ele>242.059</ele>
        <time>2020-03-29T13:51:39Z</time>
      </trkpt>
      <trkpt lat="43.54477" lon="1.47642">
        <ele>241.658</ele>
        <time>2020-03-29T13:51:45Z</time>
      </trkpt>
      <trkpt lat="43.54472" lon="1.47645">
        <ele>241.359</ele>
        <time>2020-03-29T13:51:50Z</time>
      </trkpt>
      <trkpt lat="43.54468" lon="1.47649">
        <ele>240.908</ele>
        <time>2020-03-29T13:51:56Z</time>
      </trkpt>
      <trkpt lat="43.54465" lon="1.47654">
        <ele>240.474</ele>
        <time>2020-03-29T13:52:02Z</time>
      </trkpt>
      <trkpt lat="43.54462" lon="1.4766">
        <ele>240.124</ele>
        <time>2020-03-29T13:52:07Z</time>
      </trkpt>
      <trkpt lat="43.54457" lon="1.47665">
        <ele>239.785</ele>
        <time>2020-03-29T13:52:12Z</time>
      </trkpt>
      <trkpt lat="43.54452" lon="1.47668">
        <ele>239.448</ele>
        <time>2020-03-29T13:52:17Z</time>
      </trkpt>
      <trkpt lat="43.54448" lon="1.47673">
        <ele>239.07</ele>
        <time>2020-03-29T13:52:23Z</time>
      </trkpt>
      <trkpt lat="43.54444" lon="1.47678">
        <ele>238.773</ele>
        <time>2020-03-29T13:52:28Z</time>
      </trkpt>
      <trkpt lat="43.5444" lon="1.47681">
        <ele>238.485</ele>
        <time>2020-03-29T13:52:33Z</time>
      </trkpt>
      <trkpt lat="43.54434" lon="1.47686">
        <ele>238.143</ele>
        <time>2020-03-29T13:52:39Z</time>
      </trkpt>
      <trkpt lat="43.5443" lon="1.47688">
        <ele>237.867</ele>
        <time>2020-03-29T13:52:44Z</time>
      </trkpt>
      <trkpt lat="43.54426" lon="1.4769">
        <ele>237.552</ele>
        <time>2020-03-29T13:52:50Z</time>
      </trkpt>
      <trkpt lat="43.5442" lon="1.47698">
        <ele>237.242</ele>
        <time>2020-03-29T13:52:56Z</time>
      </trkpt>
      <trkpt lat="43.54414" lon="1.47705">
        <ele>236.977</ele>
        <time>2020-03-29T13:53:01Z</time>
      </trkpt>
      <trkpt lat="43.54411" lon="1.47709">
        <ele>236.704</ele>
        <time>2020-03-29T13:53:07Z</time>
      </trkpt>
      <trkpt lat="43.54407" lon="1.47714">
        <ele>236.483</ele>
        <time>2020-03-29T13:53:12Z</time>
      </trkpt>
      <trkpt lat="43.54401" lon="1.47718">
        <ele>236.147</ele>
        <time>2020-03-29T13:53:18Z</time>
      </trkpt>
      <trkpt lat="43.54396" lon="1.47722">
        <ele>235.809</ele>
        <time>2020-03-29T13:53:24Z</time>
      </trkpt>
      <trkpt lat="43.54388" lon="1.47726">
        <ele>235.534</ele>
        <time>2020-03-29T13:53:29Z</time>
      </trkpt>
      <trkpt lat="43.54383" lon="1.47739">
        <ele>235.198</ele>
        <time>2020-03-29T13:53:35Z</time>
      </trkpt>
      <trkpt lat="43.5438" lon="1.47744">
        <ele>234.918</ele>
        <time>2020-03-29T13:53:40Z</time>
      </trkpt>
      <trkpt lat="43.54377" lon="1.47752">
        <ele>234.64</ele>
        <time>2020-03-29T13:53:45Z</time>
      </trkpt>
      <trkpt lat="43.54375" lon="1.4776">
        <ele>234.311</ele>
        <time>2020-03-29T13:53:51Z</time>
      </trkpt>
      <trkpt lat="43.54376" lon="1.47769">
        <ele>233.992</ele>
        <time>2020-03-29T13:53:57Z</time>
      </trkpt>
      <trkpt lat="43.54377" lon="1.47777">
        <ele>233.731</ele>
        <time>2020-03-29T13:54:02Z</time>
      </trkpt>
      <trkpt lat="43.5438" lon="1.47786">
        <ele>233.421</ele>
        <time>2020-03-29T13:54:08Z</time>
      </trkpt>
      <trkpt lat="43.54381" lon="1.47794">
        <ele>233.17</ele>
        <time>2020-03-29T13:54:13Z</time>
      </trkpt>
      <trkpt lat="43.54382" lon="1.47801">
        <ele>232.875</ele>
        <time>2020-03-29T13:54:19Z</time>
      </trkpt>
      <trkpt lat="43.54384" lon="1.47807">
        <ele>232.632</ele>
        <time>2020-03-29T13:54:24Z</time>
      </trkpt>
      <trkpt lat="43.5438" lon="1.47808">
        <ele>232.364</ele>
        <time>2020-03-29T13:54:30Z</time>
      </trkpt>
      <trkpt lat="43.54378" lon="1.4781">
        <ele>232.158</ele>
        <time>2020-03-29T13:54:35Z</time>
      </trkpt>
      <trkpt lat="43.54376" lon="1.47814">
        <ele>231.94</ele>
        <time>2020-03-29T13:54:41Z</time>
      </trkpt>
      <trkpt lat="43.54377" lon="1.47817">
        <ele>231.726</ele>
        <time>2020-03-29T13:54:46Z</time>
      </trkpt>
      <trkpt lat="43.54381" lon="1.47825">
        <ele>231.488</ele>
        <time>2020-03-29T13:54:52Z</time>
      </trkpt>
      <trkpt lat="43.54382" lon="1.47832">
        <ele>231.262</ele>
        <time>2020-03-29T13:54:58Z</time>
      </trkpt>
      <trkpt lat="43.54382" lon="1.47839">
        <ele>231.051</ele>
        <time>2020-03-29T13:55:04Z</time>
      </trkpt>
      <trkpt lat="43.54381" lon="1.47845">
        <ele>230.876</ele>
        <time>2020-03-29T13:55:09Z</time>
      </trkpt>
      <trkpt lat="43.54382" lon="1.47852">
        <ele>230.705</ele>
        <time>2020-03-29T13:55:14Z</time>
      </trkpt>
      <trkpt lat="43.54382" lon="1.47856">
        <ele>230.514</ele>
        <time>2020-03-29T13:55:20Z</time>
      </trkpt>
      <trkpt lat="43.54382" lon="1.47872">
        <ele>230.385</ele>
        <time>2020-03-29T13:55:25Z</time>
      </trkpt>
      <trkpt lat="43.54384" lon="1.4787">
        <ele>230.223</ele>
        <time>2020-03-29T13:55:30Z</time>
      </trkpt>
      <trkpt lat="43.54382" lon="1.47871">
        <ele>230.123</ele>
        <time>2020-03-29T13:55:36Z</time>
      </trkpt>
      <trkpt lat="43.54382" lon="1.47871">
        <ele>230.105</ele>
        <time>2020-03-29T13:55:42Z</time>
      </trkpt>
      <trkpt lat="43.54388" lon="1.47877">
        <ele>229.945</ele>
        <time>2020-03-29T13:55:47Z</time>
      </trkpt>
      <trkpt lat="43.54394" lon="1.47872">
        <ele>229.783</ele>
        <time>2020-03-29T13:55:53Z</time>
      </trkpt>
      <trkpt lat="43.54399" lon="1.47866">
        <ele>229.592</ele>
        <time>2020-03-29T13:55:59Z</time>
      </trkpt>
      <trkpt lat="43.54404" lon="1.47867">
        <ele>229.431</ele>
        <time>2020-03-29T13:56:05Z</time>
      </trkpt>
      <trkpt lat="43.54411" lon="1.47868">
        <ele>229.269</ele>
        <time>2020-03-29T13:56:10Z</time>
      </trkpt>
      <trkpt lat="43.54418" lon="1.47867">
        <ele>229.082</ele>
        <time>2020-03-29T13:56:16Z</time>
      </trkpt>
      <trkpt lat="43.54425" lon="1.47861">
        <ele>228.935</ele>
        <time>2020-03-29T13:56:21Z</time>
      </trkpt>
      <trkpt lat="43.54433" lon="1.4786">
        <ele>228.77</ele>
        <time>2020-03-29T13:56:27Z</time>
      </trkpt>
      <trkpt lat="43.54436" lon="1.4786">
        <ele>228.619</ele>
        <time>2020-03-29T13:56:33Z</time>
      </trkpt>
      <trkpt lat="43.54443" lon="1.47859">
        <ele>228.497</ele>
        <time>2020-03-29T13:56:39Z</time>
      </trkpt>
      <trkpt lat="43.54445" lon="1.47857">
        <ele>228.444</ele>
        <time>2020-03-29T13:56:45Z</time>
      </trkpt>
      <trkpt lat="43.54452" lon="1.47858">
        <ele>228.374</ele>
        <time>2020-03-29T13:56:51Z</time>
      </trkpt>
      <trkpt lat="43.54453" lon="1.47858">
        <ele>228.365</ele>
        <time>2020-03-29T13:56:56Z</time>
      </trkpt>
      <trkpt lat="43.54455" lon="1.47858">
        <ele>228.356</ele>
        <time>2020-03-29T13:57:02Z</time>
      </trkpt>
      <trkpt lat="43.54456" lon="1.47858">
        <ele>228.348</ele>
        <time>2020-03-29T13:57:08Z</time>
      </trkpt>
      <trkpt lat="43.54456" lon="1.47858">
        <ele>228.342</ele>
        <time>2020-03-29T13:57:13Z</time>
      </trkpt>
      <trkpt lat="43.54456" lon="1.47857">
        <ele>228.291</ele>
        <time>2020-03-29T13:57:19Z</time>
      </trkpt>
      <trkpt lat="43.54457" lon="1.47857">
        <ele>228.285</ele>
        <time>2020-03-29T13:57:24Z</time>
      </trkpt>
      <trkpt lat="43.54456" lon="1.47859">
        <ele>228.232</ele>
        <time>2020-03-29T13:57:30Z</time>
      </trkpt>
      <trkpt lat="43.54456" lon="1.4786">
        <ele>228.219</ele>
        <time>2020-03-29T13:57:35Z</time>
      </trkpt>
      <trkpt lat="43.54456" lon="1.4786">
        <ele>228.215</ele>
        <time>2020-03-29T13:57:40Z</time>
      </trkpt>
      <trkpt lat="43.54455" lon="1.4786">
        <ele>228.173</ele>
        <time>2020-03-29T13:57:46Z</time>
      </trkpt>
      <trkpt lat="43.54457" lon="1.4786">
        <ele>228.118</ele>
        <time>2020-03-29T13:57:52Z</time>
      </trkpt>
      <trkpt lat="43.5446" lon="1.47859">
        <ele>228.071</ele>
        <time>2020-03-29T13:57:57Z</time>
      </trkpt>
      <trkpt lat="43.54462" lon="1.47857">
        <ele>228.033</ele>
        <time>2020-03-29T13:58:03Z</time>
      </trkpt>
      <trkpt lat="43.54468" lon="1.47857">
        <ele>227.988</ele>
        <time>2020-03-29T13:58:08Z</time>
      </trkpt>
      <trkpt lat="43.54473" lon="1.47856">
        <ele>227.936</ele>
        <time>2020-03-29T13:58:14Z</time>
      </trkpt>
      <trkpt lat="43.5448" lon="1.47855">
        <ele>227.878</ele>
        <time>2020-03-29T13:58:20Z</time>
      </trkpt>
      <trkpt lat="43.54487" lon="1.47854">
        <ele>227.813</ele>
        <time>2020-03-29T13:58:26Z</time>
      </trkpt>
      <trkpt lat="43.54492" lon="1.47852">
        <ele>227.758</ele>
        <time>2020-03-29T13:58:31Z</time>
      </trkpt>
      <trkpt lat="43.54497" lon="1.47852">
        <ele>227.704</ele>
        <time>2020-03-29T13:58:37Z</time>
      </trkpt>
      <trkpt lat="43.54502" lon="1.47851">
        <ele>227.682</ele>
        <time>2020-03-29T13:58:42Z</time>
      </trkpt>
      <trkpt lat="43.54506" lon="1.47851">
        <ele>227.639</ele>
        <time>2020-03-29T13:58:47Z</time>
      </trkpt>
      <trkpt lat="43.54509" lon="1.47848">
        <ele>227.598</ele>
        <time>2020-03-29T13:58:52Z</time>
      </trkpt>
      <trkpt lat="43.54518" lon="1.47846">
        <ele>227.556</ele>
        <time>2020-03-29T13:58:58Z</time>
      </trkpt>
      <trkpt lat="43.5453" lon="1.47838">
        <ele>227.517</ele>
        <time>2020-03-29T13:59:03Z</time>
      </trkpt>
      <trkpt lat="43.54535" lon="1.47838">
        <ele>227.451</ele>
        <time>2020-03-29T13:59:09Z</time>
      </trkpt>
      <trkpt lat="43.54539" lon="1.47836">
        <ele>227.375</ele>
        <time>2020-03-29T13:59:15Z</time>
      </trkpt>
      <trkpt lat="43.54542" lon="1.47834">
        <ele>227.312</ele>
        <time>2020-03-29T13:59:21Z</time>
      </trkpt>
      <trkpt lat="43.54543" lon="1.47833">
        <ele>227.243</ele>
        <time>2020-03-29T13:59:27Z</time>
      </trkpt>
      <trkpt lat="43.54549" lon="1.47828">
        <ele>227.16</ele>
        <time>2020-03-29T13:59:32Z</time>
      </trkpt>
      <trkpt lat="43.54553" lon="1.47826">
        <ele>227.11</ele>
        <time>2020-03-29T13:59:38Z</time>
      </trkpt>
      <trkpt lat="43.54558" lon="1.47822">
        <ele>227.076</ele>
        <time>2020-03-29T13:59:44Z</time>
      </trkpt>
      <trkpt lat="43.54564" lon="1.47825">
        <ele>227.041</ele>
        <time>2020-03-29T13:59:50Z</time>
      </trkpt>
      <trkpt lat="43.54567" lon="1.47829">
        <ele>226.948</ele>
        <time>2020-03-29T13:59:56Z</time>
      </trkpt>
      <trkpt lat="43.54567" lon="1.47833">
        <ele>226.922</ele>
        <time>2020-03-29T14:00:01Z</time>
      </trkpt>
      <trkpt lat="43.5457" lon="1.47837">
        <ele>226.842</ele>
        <time>2020-03-29T14:00:07Z</time>
      </trkpt>
      <trkpt lat="43.54575" lon="1.47844">
        <ele>226.72</ele>
        <time>2020-03-29T14:00:13Z</time>
      </trkpt>
      <trkpt lat="43.54578" lon="1.47846">
        <ele>226.621</ele>
        <time>2020-03-29T14:00:18Z</time>
      </trkpt>
      <trkpt lat="43.54581" lon="1.47848">
        <ele>226.533</ele>
        <time>2020-03-29T14:00:23Z</time>
      </trkpt>
      <trkpt lat="43.54585" lon="1.47847">
        <ele>226.469</ele>
        <time>2020-03-29T14:00:28Z</time>
      </trkpt>
      <trkpt lat="43.54594" lon="1.47843">
        <ele>226.391</ele>
        <time>2020-03-29T14:00:33Z</time>
      </trkpt>
      <trkpt lat="43.54602" lon="1.47842">
        <ele>226.293</ele>
        <time>2020-03-29T14:00:39Z</time>
      </trkpt>
      <trkpt lat="43.5461" lon="1.47842">
        <ele>226.191</ele>
        <time>2020-03-29T14:00:45Z</time>
      </trkpt>
      <trkpt lat="43.54617" lon="1.4784">
        <ele>226.109</ele>
        <time>2020-03-29T14:00:50Z</time>
      </trkpt>
      <trkpt lat="43.5462" lon="1.4784">
        <ele>226.016</ele>
        <time>2020-03-29T14:00:56Z</time>
      </trkpt>
      <trkpt lat="43.54626" lon="1.47839">
        <ele>225.939</ele>
        <time>2020-03-29T14:01:01Z</time>
      </trkpt>
      <trkpt lat="43.54637" lon="1.47837">
        <ele>225.841</ele>
        <time>2020-03-29T14:01:07Z</time>
      </trkpt>
      <trkpt lat="43.54643" lon="1.47836">
        <ele>225.751</ele>
        <time>2020-03-29T14:01:12Z</time>
      </trkpt>
      <trkpt lat="43.54649" lon="1.47838">
        <ele>225.634</ele>
        <time>2020-03-29T14:01:18Z</time>
      </trkpt>
      <trkpt lat="43.54654" lon="1.47841">
        <ele>225.532</ele>
        <time>2020-03-29T14:01:23Z</time>
      </trkpt>
      <trkpt lat="43.54661" lon="1.47844">
        <ele>225.402</ele>
        <time>2020-03-29T14:01:29Z</time>
      </trkpt>
      <trkpt lat="43.54666" lon="1.47844">
        <ele>225.288</ele>
        <time>2020-03-29T14:01:34Z</time>
      </trkpt>
      <trkpt lat="43.54673" lon="1.47843">
        <ele>225.149</ele>
        <time>2020-03-29T14:01:40Z</time>
      </trkpt>
      <trkpt lat="43.54676" lon="1.47844">
        <ele>225.031</ele>
        <time>2020-03-29T14:01:45Z</time>
      </trkpt>
      <trkpt lat="43.54682" lon="1.47847">
        <ele>224.883</ele>
        <time>2020-03-29T14:01:51Z</time>
      </trkpt>
      <trkpt lat="43.54687" lon="1.47852">
        <ele>224.737</ele>
        <time>2020-03-29T14:01:57Z</time>
      </trkpt>
      <trkpt lat="43.54693" lon="1.47853">
        <ele>224.585</ele>
        <time>2020-03-29T14:02:03Z</time>
      </trkpt>
      <trkpt lat="43.54698" lon="1.47855">
        <ele>224.424</ele>
        <time>2020-03-29T14:02:09Z</time>
      </trkpt>
      <trkpt lat="43.54704" lon="1.47858">
        <ele>224.259</ele>
        <time>2020-03-29T14:02:15Z</time>
      </trkpt>
      <trkpt lat="43.54707" lon="1.4786">
        <ele>224.15</ele>
        <time>2020-03-29T14:02:20Z</time>
      </trkpt>
      <trkpt lat="43.54716" lon="1.47859">
        <ele>223.991</ele>
        <time>2020-03-29T14:02:26Z</time>
      </trkpt>
      <trkpt lat="43.54725" lon="1.47858">
        <ele>223.827</ele>
        <time>2020-03-29T14:02:32Z</time>
      </trkpt>
      <trkpt lat="43.54728" lon="1.47857">
        <ele>223.7</ele>
        <time>2020-03-29T14:02:37Z</time>
      </trkpt>
      <trkpt lat="43.54734" lon="1.47857">
        <ele>223.551</ele>
        <time>2020-03-29T14:02:43Z</time>
      </trkpt>
      <trkpt lat="43.5474" lon="1.47855">
        <ele>223.422</ele>
        <time>2020-03-29T14:02:48Z</time>
      </trkpt>
      <trkpt lat="43.54744" lon="1.47856">
        <ele>223.282</ele>
        <time>2020-03-29T14:02:54Z</time>
      </trkpt>
      <trkpt lat="43.54749" lon="1.47857">
        <ele>223.154</ele>
        <time>2020-03-29T14:03:00Z</time>
      </trkpt>
      <trkpt lat="43.54753" lon="1.47852">
        <ele>223.059</ele>
        <time>2020-03-29T14:03:05Z</time>
      </trkpt>
      <trkpt lat="43.54756" lon="1.4785">
        <ele>222.956</ele>
        <time>2020-03-29T14:03:11Z</time>
      </trkpt>
      <trkpt lat="43.5476" lon="1.47844">
        <ele>222.862</ele>
        <time>2020-03-29T14:03:17Z</time>
      </trkpt>
      <trkpt lat="43.54762" lon="1.47839">
        <ele>222.787</ele>
        <time>2020-03-29T14:03:22Z</time>
      </trkpt>
      <trkpt lat="43.54765" lon="1.47832">
        <ele>222.713</ele>
        <time>2020-03-29T14:03:28Z</time>
      </trkpt>
      <trkpt lat="43.54768" lon="1.47827">
        <ele>222.637</ele>
        <time>2020-03-29T14:03:34Z</time>
      </trkpt>
      <trkpt lat="43.54771" lon="1.47821">
        <ele>222.587</ele>
        <time>2020-03-29T14:03:40Z</time>
      </trkpt>
      <trkpt lat="43.54773" lon="1.47817">
        <ele>222.522</ele>
        <time>2020-03-29T14:03:45Z</time>
      </trkpt>
      <trkpt lat="43.54776" lon="1.47811">
        <ele>222.422</ele>
        <time>2020-03-29T14:03:50Z</time>
      </trkpt>
      <trkpt lat="43.54782" lon="1.47808">
        <ele>222.31</ele>
        <time>2020-03-29T14:03:56Z</time>
      </trkpt>
      <trkpt lat="43.5478" lon="1.47803">
        <ele>222.227</ele>
        <time>2020-03-29T14:04:01Z</time>
      </trkpt>
      <trkpt lat="43.54784" lon="1.47797">
        <ele>222.136</ele>
        <time>2020-03-29T14:04:07Z</time>
      </trkpt>
      <trkpt lat="43.54789" lon="1.47792">
        <ele>222.06</ele>
        <time>2020-03-29T14:04:12Z</time>
      </trkpt>
      <trkpt lat="43.54796" lon="1.4779">
        <ele>221.965</ele>
        <time>2020-03-29T14:04:18Z</time>
      </trkpt>
      <trkpt lat="43.54805" lon="1.47791">
        <ele>221.871</ele>
        <time>2020-03-29T14:04:24Z</time>
      </trkpt>
      <trkpt lat="43.54813" lon="1.47787">
        <ele>221.777</ele>
        <time>2020-03-29T14:04:30Z</time>
      </trkpt>
      <trkpt lat="43.54817" lon="1.47785">
        <ele>221.697</ele>
        <time>2020-03-29T14:04:35Z</time>
      </trkpt>
      <trkpt lat="43.54823" lon="1.4778">
        <ele>221.598</ele>
        <time>2020-03-29T14:04:41Z</time>
      </trkpt>
      <trkpt lat="43.54829" lon="1.47777">
        <ele>221.494</ele>
        <time>2020-03-29T14:04:47Z</time>
      </trkpt>
      <trkpt lat="43.54834" lon="1.47774">
        <ele>221.403</ele>
        <time>2020-03-29T14:04:52Z</time>
      </trkpt>
      <trkpt lat="43.5484" lon="1.47772">
        <ele>221.317</ele>
        <time>2020-03-29T14:04:57Z</time>
      </trkpt>
      <trkpt lat="43.54848" lon="1.47766">
        <ele>221.213</ele>
        <time>2020-03-29T14:05:03Z</time>
      </trkpt>
      <trkpt lat="43.54853" lon="1.47764">
        <ele>221.114</ele>
        <time>2020-03-29T14:05:09Z</time>
      </trkpt>
      <trkpt lat="43.54856" lon="1.47762">
        <ele>221.036</ele>
        <time>2020-03-29T14:05:14Z</time>
      </trkpt>
      <trkpt lat="43.5486" lon="1.47759">
        <ele>220.943</ele>
        <time>2020-03-29T14:05:20Z</time>
      </trkpt>
      <trkpt lat="43.54867" lon="1.47756">
        <ele>220.854</ele>
        <time>2020-03-29T14:05:26Z</time>
      </trkpt>
      <trkpt lat="43.54874" lon="1.47754">
        <ele>220.772</ele>
        <time>2020-03-29T14:05:32Z</time>
      </trkpt>
      <trkpt lat="43.5488" lon="1.47751">
        <ele>220.695</ele>
        <time>2020-03-29T14:05:38Z</time>
      </trkpt>
      <trkpt lat="43.54886" lon="1.47748">
        <ele>220.624</ele>
        <time>2020-03-29T14:05:44Z</time>
      </trkpt>
      <trkpt lat="43.54893" lon="1.47742">
        <ele>220.571</ele>
        <time>2020-03-29T14:05:49Z</time>
      </trkpt>
      <trkpt lat="43.54899" lon="1.47738">
        <ele>220.51</ele>
        <time>2020-03-29T14:05:55Z</time>
      </trkpt>
      <trkpt lat="43.54902" lon="1.47734">
        <ele>220.461</ele>
        <time>2020-03-29T14:06:00Z</time>
      </trkpt>
      <trkpt lat="43.54906" lon="1.47733">
        <ele>220.404</ele>
        <time>2020-03-29T14:06:06Z</time>
      </trkpt>
      <trkpt lat="43.5491" lon="1.47731">
        <ele>220.344</ele>
        <time>2020-03-29T14:06:12Z</time>
      </trkpt>
      <trkpt lat="43.54918" lon="1.47731">
        <ele>220.283</ele>
        <time>2020-03-29T14:06:18Z</time>
      </trkpt>
      <trkpt lat="43.54923" lon="1.4773">
        <ele>220.23</ele>
        <time>2020-03-29T14:06:23Z</time>
      </trkpt>
      <trkpt lat="43.54927" lon="1.47729">
        <ele>220.179</ele>
        <time>2020-03-29T14:06:28Z</time>
      </trkpt>
      <trkpt lat="43.54931" lon="1.47727">
        <ele>220.131</ele>
        <time>2020-03-29T14:06:33Z</time>
      </trkpt>
      <trkpt lat="43.54937" lon="1.47725">
        <ele>220.076</ele>
        <time>2020-03-29T14:06:39Z</time>
      </trkpt>
      <trkpt lat="43.54941" lon="1.47722">
        <ele>220.025</ele>
        <time>2020-03-29T14:06:44Z</time>
      </trkpt>
      <trkpt lat="43.54948" lon="1.47719">
        <ele>219.962</ele>
        <time>2020-03-29T14:06:50Z</time>
      </trkpt>
      <trkpt lat="43.54957" lon="1.47717">
        <ele>219.903</ele>
        <time>2020-03-29T14:06:56Z</time>
      </trkpt>
      <trkpt lat="43.54961" lon="1.47713">
        <ele>219.842</ele>
        <time>2020-03-29T14:07:02Z</time>
      </trkpt>
      <trkpt lat="43.54966" lon="1.4771">
        <ele>219.786</ele>
        <time>2020-03-29T14:07:07Z</time>
      </trkpt>
      <trkpt lat="43.54971" lon="1.47706">
        <ele>219.725</ele>
        <time>2020-03-29T14:07:12Z</time>
      </trkpt>
      <trkpt lat="43.54978" lon="1.47702">
        <ele>219.646</ele>
        <time>2020-03-29T14:07:18Z</time>
      </trkpt>
      <trkpt lat="43.54984" lon="1.47701">
        <ele>219.581</ele>
        <time>2020-03-29T14:07:23Z</time>
      </trkpt>
      <trkpt lat="43.54988" lon="1.47699">
        <ele>219.505</ele>
        <time>2020-03-29T14:07:29Z</time>
      </trkpt>
      <trkpt lat="43.54994" lon="1.47695">
        <ele>219.425</ele>
        <time>2020-03-29T14:07:35Z</time>
      </trkpt>
      <trkpt lat="43.54998" lon="1.47694">
        <ele>219.361</ele>
        <time>2020-03-29T14:07:40Z</time>
      </trkpt>
      <trkpt lat="43.55002" lon="1.4769">
        <ele>219.291</ele>
        <time>2020-03-29T14:07:46Z</time>
      </trkpt>
      <trkpt lat="43.5501" lon="1.47685">
        <ele>219.222</ele>
        <time>2020-03-29T14:07:52Z</time>
      </trkpt>
      <trkpt lat="43.55016" lon="1.47682">
        <ele>219.158</ele>
        <time>2020-03-29T14:07:58Z</time>
      </trkpt>
      <trkpt lat="43.55022" lon="1.4768">
        <ele>219.098</ele>
        <time>2020-03-29T14:08:04Z</time>
      </trkpt>
      <trkpt lat="43.55026" lon="1.47679">
        <ele>219.076</ele>
        <time>2020-03-29T14:08:10Z</time>
      </trkpt>
      <trkpt lat="43.55027" lon="1.47679">
        <ele>219.071</ele>
        <time>2020-03-29T14:08:16Z</time>
      </trkpt>
      <trkpt lat="43.55027" lon="1.47678">
        <ele>219.066</ele>
        <time>2020-03-29T14:08:22Z</time>
      </trkpt>
      <trkpt lat="43.55027" lon="1.47678">
        <ele>219.06</ele>
        <time>2020-03-29T14:08:28Z</time>
      </trkpt>
      <trkpt lat="43.55027" lon="1.47677">
        <ele>219.055</ele>
        <time>2020-03-29T14:08:33Z</time>
      </trkpt>
      <trkpt lat="43.55027" lon="1.47677">
        <ele>219.048</ele>
        <time>2020-03-29T14:08:39Z</time>
      </trkpt>
      <trkpt lat="43.55029" lon="1.47675">
        <ele>219.006</ele>
        <time>2020-03-29T14:08:45Z</time>
      </trkpt>
      <trkpt lat="43.55028" lon="1.47676">
        <ele>218.997</ele>
        <time>2020-03-29T14:08:51Z</time>
      </trkpt>
      <trkpt lat="43.55028" lon="1.47676">
        <ele>218.989</ele>
        <time>2020-03-29T14:08:56Z</time>
      </trkpt>
      <trkpt lat="43.55028" lon="1.47677">
        <ele>218.979</ele>
        <time>2020-03-29T14:09:01Z</time>
      </trkpt>
      <trkpt lat="43.55028" lon="1.47677">
        <ele>218.969</ele>
        <time>2020-03-29T14:09:06Z</time>
      </trkpt>
      <trkpt lat="43.55028" lon="1.47677">
        <ele>218.957</ele>
        <time>2020-03-29T14:09:12Z</time>
      </trkpt>
      <trkpt lat="43.55029" lon="1.47677">
        <ele>218.944</ele>
        <time>2020-03-29T14:09:18Z</time>
      </trkpt>
      <trkpt lat="43.55029" lon="1.47677">
        <ele>218.934</ele>
        <time>2020-03-29T14:09:23Z</time>
      </trkpt>
      <trkpt lat="43.55029" lon="1.47677">
        <ele>218.921</ele>
        <time>2020-03-29T14:09:29Z</time>
      </trkpt>
      <trkpt lat="43.5503" lon="1.47678">
        <ele>218.872</ele>
        <time>2020-03-29T14:09:35Z</time>
      </trkpt>
      <trkpt lat="43.55029" lon="1.47677">
        <ele>218.844</ele>
        <time>2020-03-29T14:09:40Z</time>
      </trkpt>
      <trkpt lat="43.55029" lon="1.47677">
        <ele>218.834</ele>
        <time>2020-03-29T14:09:45Z</time>
      </trkpt>
      <trkpt lat="43.5503" lon="1.47676">
        <ele>218.805</ele>
        <time>2020-03-29T14:09:50Z</time>
      </trkpt>
      <trkpt lat="43.5503" lon="1.47676">
        <ele>218.724</ele>
        <time>2020-03-29T14:09:55Z</time>
      </trkpt>
      <trkpt lat="43.5503" lon="1.47676">
        <ele>218.696</ele>
        <time>2020-03-29T14:10:01Z</time>
      </trkpt>
      <trkpt lat="43.55031" lon="1.47676">
        <ele>218.686</ele>
        <time>2020-03-29T14:10:07Z</time>
      </trkpt>
      <trkpt lat="43.55031" lon="1.47676">
        <ele>218.68</ele>
        <time>2020-03-29T14:10:12Z</time>
      </trkpt>
      <trkpt lat="43.55031" lon="1.47676">
        <ele>218.672</ele>
        <time>2020-03-29T14:10:18Z</time>
      </trkpt>
      <trkpt lat="43.55031" lon="1.47676">
        <ele>218.665</ele>
        <time>2020-03-29T14:10:23Z</time>
      </trkpt>
      <trkpt lat="43.55031" lon="1.47676">
        <ele>218.646</ele>
        <time>2020-03-29T14:10:29Z</time>
      </trkpt>
      <trkpt lat="43.55032" lon="1.47675">
        <ele>218.606</ele>
        <time>2020-03-29T14:10:34Z</time>
      </trkpt>
      <trkpt lat="43.55032" lon="1.47675">
        <ele>218.597</ele>
        <time>2020-03-29T14:10:40Z</time>
      </trkpt>
      <trkpt lat="43.55032" lon="1.47675">
        <ele>218.588</ele>
        <time>2020-03-29T14:10:46Z</time>
      </trkpt>
      <trkpt lat="43.55032" lon="1.47674">
        <ele>218.538</ele>
        <time>2020-03-29T14:10:51Z</time>
      </trkpt>
      <trkpt lat="43.55032" lon="1.47673">
        <ele>218.516</ele>
        <time>2020-03-29T14:10:57Z</time>
      </trkpt>
      <trkpt lat="43.55032" lon="1.47673">
        <ele>218.509</ele>
        <time>2020-03-29T14:11:02Z</time>
      </trkpt>
      <trkpt lat="43.55032" lon="1.47673">
        <ele>218.5</ele>
        <time>2020-03-29T14:11:08Z</time>
      </trkpt>
      <trkpt lat="43.55032" lon="1.47673">
        <ele>218.494</ele>
        <time>2020-03-29T14:11:13Z</time>
      </trkpt>
      <trkpt lat="43.55032" lon="1.47673">
        <ele>218.488</ele>
        <time>2020-03-29T14:11:19Z</time>
      </trkpt>
      <trkpt lat="43.55033" lon="1.47672">
        <ele>218.473</ele>
        <time>2020-03-29T14:11:24Z</time>
      </trkpt>
      <trkpt lat="43.55033" lon="1.47672">
        <ele>218.467</ele>
        <time>2020-03-29T14:11:30Z</time>
      </trkpt>
      <trkpt lat="43.55033" lon="1.47672">
        <ele>218.461</ele>
        <time>2020-03-29T14:11:36Z</time>
      </trkpt>
      <trkpt lat="43.55033" lon="1.47672">
        <ele>218.456</ele>
        <time>2020-03-29T14:11:42Z</time>
      </trkpt>
      <trkpt lat="43.55034" lon="1.47671">
        <ele>218.415</ele>
        <time>2020-03-29T14:11:48Z</time>
      </trkpt>
      <trkpt lat="43.55034" lon="1.47671">
        <ele>218.384</ele>
        <time>2020-03-29T14:11:53Z</time>
      </trkpt>
      <trkpt lat="43.55038" lon="1.47674">
        <ele>218.359</ele>
        <time>2020-03-29T14:11:58Z</time>
      </trkpt>
      <trkpt lat="43.55041" lon="1.47681">
        <ele>218.343</ele>
        <time>2020-03-29T14:12:03Z</time>
      </trkpt>
      <trkpt lat="43.55041" lon="1.47681">
        <ele>218.337</ele>
        <time>2020-03-29T14:12:09Z</time>
      </trkpt>
      <trkpt lat="43.5504" lon="1.47681">
        <ele>218.33</ele>
        <time>2020-03-29T14:12:14Z</time>
      </trkpt>
      <trkpt lat="43.5501" lon="1.47805">
        <ele>153.4</ele>
      </trkpt>
      <trkpt lat="43.55008" lon="1.47803">
        <ele>153.4</ele>
      </trkpt>
      <trkpt lat="43.5502" lon="1.47806">
        <ele>153.3</ele>
      </trkpt>
    </trkseg>
  </trk>
</gpx>